Time,TemperatureF,DewpointF,PressureIn,WindDirection,WindDirectionDegrees,WindSpeedMPH,WindSpeedGustMPH,Humidity,HourlyPrecipIn,Conditions,Clouds,dailyrainin,SolarRadiationWatts/m^2,SoftwareType,DateUTC
2013-01-25 00:00:00,55.4,48.3,30.14,North,5,0.0,0.0,77,0.04,RA,FEW,0.00,0.0,WeatherDisplay:10.37,2013-01-25 08:00:00,
2013-01-25 00:03:00,55.3,48.6,30.14,North,5,0.0,0.0,78,0.04,RA,FEW,0.00,0.0,WeatherDisplay:10.37,2013-01-25 08:03:00,
2013-01-25 00:04:00,55.3,48.6,30.14,North,7,0.0,0.0,78,0.01,RA,FEW,0.00,0.0,WeatherDisplay:10.37,2013-01-25 08:04:00,
2013-01-25 00:05:00,55.3,48.6,30.14,North,5,0.0,0.0,78,0.04,RA,FEW,0.00,0.0,WeatherDisplay:10.37,2013-01-25 08:05:00,
2013-01-25 00:06:00,55.3,48.6,30.14,North,5,0.0,0.0,78,0.04,RA,FEW,0.00,0.0,WeatherDisplay:10.37,2013-01-25 08:06:00,
2013-01-25 00:08:00,55.1,48.7,30.14,East,80,0.0,0.0,79,0.04,RA,FEW,0.00,0.0,WeatherDisplay:10.37,2013-01-25 08:08:00,
2013-01-25 00:10:00,55.1,48.7,30.14,ESE,107,0.0,0.0,79,0.04,CLR,FEW,0.00,0.0,WeatherDisplay:10.37,2013-01-25 08:10:00,
2013-01-25 00:11:00,55.1,49.0,30.14,ESE,109,3.1,9.1,80,0.04,CLR,FEW,0.00,0.0,WeatherDisplay:10.37,2013-01-25 08:11:00,
2013-01-25 00:13:00,55.1,48.7,30.14,East,98,1.1,8.1,79,0.02,CLR,FEW,0.00,0.0,WeatherDisplay:10.37,2013-01-25 08:13:00,
2013-01-25 00:15:00,55.1,48.7,30.13,East,80,2.5,9.2,79,0.02,CLR,FEW,0.00,0.0,WeatherDisplay:10.37,2013-01-25 08:15:00,
2013-01-25 00:16:00,55.1,48.7,30.13,ENE,62,0.0,5.8,79,0.02,CLR,FEW,0.00,0.0,WeatherDisplay:10.37,2013-01-25 08:16:00,
2013-01-25 00:18:00,55.1,48.7,30.13,East,82,5.0,9.2,79,0.02,CLR,FEW,0.00,0.0,WeatherDisplay:10.37,2013-01-25 08:18:00,
2013-01-25 00:21:00,55.3,48.6,30.13,East,96,0.5,3.5,78,0.02,CLR,FEW,0.00,0.0,WeatherDisplay:10.37,2013-01-25 08:21:00,
2013-01-25 00:23:00,55.4,48.7,30.13,East,98,0.0,3.9,78,0.02,CLR,FEW,0.00,0.0,WeatherDisplay:10.37,2013-01-25 08:23:00,
2013-01-25 00:26:00,55.4,48.7,30.13,East,93,5.5,10.4,78,0.02,CLR,FEW,0.00,0.0,WeatherDisplay:10.37,2013-01-25 08:26:00,
2013-01-25 00:28:00,55.4,48.3,30.13,ESE,109,0.0,10.4,77,0.02,CLR,FEW,0.00,0.0,WeatherDisplay:10.37,2013-01-25 08:28:00,
2013-01-25 00:31:00,55.4,48.3,30.11,East,86,0.0,0.0,77,0.02,CLR,FEW,0.01,0.0,WeatherDisplay:10.37,2013-01-25 08:31:00,
2013-01-25 00:32:00,55.4,48.3,30.11,East,84,0.6,6.5,77,0.04,RA,FEW,0.01,0.0,WeatherDisplay:10.37,2013-01-25 08:32:00,
2013-01-25 00:34:00,55.4,48.3,30.11,East,96,1.2,10.4,77,0.04,RA,FEW,0.01,0.0,WeatherDisplay:10.37,2013-01-25 08:34:00,
2013-01-25 00:36:00,55.3,48.2,30.11,ESE,110,2.0,10.4,77,0.04,RA,FEW,0.01,0.0,WeatherDisplay:10.37,2013-01-25 08:36:00,
2013-01-25 00:38:00,55.3,48.2,30.11,ESE,109,2.3,8.1,77,0.02,RA,FEW,0.01,0.0,WeatherDisplay:10.37,2013-01-25 08:38:00,
2013-01-25 00:39:00,55.3,48.2,30.11,ESE,105,1.0,0.0,77,0.01,RA,FEW,0.01,0.0,WeatherDisplay:10.37,2013-01-25 08:39:00,
2013-01-25 00:41:00,55.3,48.2,30.11,ESE,113,9.4,10.4,77,0.02,RA,FEW,0.01,0.0,WeatherDisplay:10.37,2013-01-25 08:41:00,
2013-01-25 00:42:00,55.3,48.2,30.11,ESE,104,5.4,9.2,77,0.02,,FEW,0.01,0.0,WeatherDisplay:10.37,2013-01-25 08:42:00,
2013-01-25 00:44:00,55.4,48.3,30.11,ESE,105,0.0,0.0,77,0.00,CLR,FEW,0.01,0.0,WeatherDisplay:10.37,2013-01-25 08:44:00,
2013-01-25 00:45:00,55.4,48.0,30.10,East,98,0.9,8.1,76,0.02,CLR,FEW,0.01,0.0,WeatherDisplay:10.37,2013-01-25 08:45:00,
2013-01-25 00:46:00,55.4,48.0,30.10,East,86,4.2,11.7,76,0.02,CLR,FEW,0.01,0.0,WeatherDisplay:10.37,2013-01-25 08:46:00,
2013-01-25 00:48:00,55.4,48.0,30.10,SE,132,14.1,16.1,76,0.02,CLR,FEW,0.01,0.0,WeatherDisplay:10.37,2013-01-25 08:48:00,
2013-01-25 00:50:00,55.4,48.0,30.10,ESE,122,16.8,17.3,76,0.02,CLR,FEW,0.01,0.0,WeatherDisplay:10.37,2013-01-25 08:50:00,
2013-01-25 00:51:00,55.6,47.8,30.10,SE,126,12.4,17.3,75,0.02,CLR,FEW,0.01,0.0,WeatherDisplay:10.37,2013-01-25 08:51:00,
2013-01-25 00:54:00,55.6,47.8,30.10,SE,128,9.3,10.4,75,0.02,CLR,FEW,0.01,0.0,WeatherDisplay:10.37,2013-01-25 08:54:00,
2013-01-25 00:55:00,55.7,47.5,30.10,East,96,5.9,11.7,74,0.02,CLR,FEW,0.01,0.0,WeatherDisplay:10.37,2013-01-25 08:55:00,
2013-01-25 00:56:00,55.7,47.5,30.10,ESE,110,9.8,11.5,74,0.02,CLR,FEW,0.01,0.0,WeatherDisplay:10.37,2013-01-25 08:56:00,
2013-01-25 00:59:00,56.0,47.5,30.10,ESE,123,9.0,13.8,73,0.01,CLR,FEW,0.01,0.0,WeatherDisplay:10.37,2013-01-25 08:59:00,
2013-01-25 01:00:00,56.2,47.7,30.09,ESE,113,6.2,13.8,73,0.01,CLR,FEW,0.01,0.0,WeatherDisplay:10.37,2013-01-25 09:00:00,
2013-01-25 01:01:00,56.2,47.7,30.09,ESE,108,4.4,13.8,73,0.01,CLR,FEW,0.01,0.0,WeatherDisplay:10.37,2013-01-25 09:01:00,
2013-01-25 01:05:00,56.3,47.4,30.09,East,101,3.2,9.2,72,0.01,CLR,FEW,0.01,0.0,WeatherDisplay:10.37,2013-01-25 09:05:00,
2013-01-25 01:06:00,56.3,47.4,30.09,East,86,0.2,11.5,72,0.01,CLR,FEW,0.01,0.0,WeatherDisplay:10.37,2013-01-25 09:06:00,
2013-01-25 01:07:00,56.5,47.6,30.09,ESE,107,10.1,16.1,72,0.01,CLR,FEW,0.01,0.0,WeatherDisplay:10.37,2013-01-25 09:07:00,
2013-01-25 01:11:00,56.6,47.3,30.09,SE,126,7.1,13.8,71,0.01,CLR,FEW,0.01,0.0,WeatherDisplay:10.37,2013-01-25 09:11:00,
2013-01-25 01:12:00,56.7,47.4,30.09,ESE,115,8.1,12.7,71,0.01,CLR,FEW,0.01,0.0,WeatherDisplay:10.37,2013-01-25 09:12:00,
2013-01-25 01:16:00,56.7,47.4,30.10,ESE,111,3.5,10.4,71,0.01,CLR,FEW,0.01,0.0,WeatherDisplay:10.37,2013-01-25 09:16:00,
2013-01-25 01:17:00,56.7,47.0,30.10,East,94,11.8,13.8,70,0.01,CLR,FEW,0.01,0.0,WeatherDisplay:10.37,2013-01-25 09:17:00,
2013-01-25 01:22:00,57.2,47.1,30.10,East,96,4.3,12.7,69,0.01,CLR,FEW,0.01,0.0,WeatherDisplay:10.37,2013-01-25 09:22:00,
2013-01-25 01:23:00,57.3,47.2,30.10,ESE,103,4.6,10.4,69,0.01,CLR,FEW,0.01,0.0,WeatherDisplay:10.37,2013-01-25 09:23:00,
2013-01-25 01:24:00,57.3,47.2,30.10,ESE,106,6.2,11.5,69,0.01,CLR,FEW,0.01,0.0,WeatherDisplay:10.37,2013-01-25 09:24:00,
2013-01-25 01:28:00,57.6,47.1,30.10,SE,142,4.8,10.4,68,0.01,CLR,FEW,0.01,0.0,WeatherDisplay:10.37,2013-01-25 09:28:00,
2013-01-25 01:29:00,57.6,47.1,30.10,East,92,0.0,8.1,68,0.01,CLR,FEW,0.01,0.0,WeatherDisplay:10.37,2013-01-25 09:29:00,
2013-01-25 01:34:00,57.6,47.1,30.10,East,92,0.0,0.0,68,0.00,CLR,FEW,0.01,0.0,WeatherDisplay:10.37,2013-01-25 09:34:00,
2013-01-25 01:39:00,58.3,47.0,30.10,SE,130,0.1,9.2,66,0.00,CLR,FEW,0.01,0.0,WeatherDisplay:10.37,2013-01-25 09:39:00,
2013-01-25 01:40:00,58.3,46.6,30.10,SE,132,3.7,10.4,65,0.00,CLR,FEW,0.01,0.0,WeatherDisplay:10.37,2013-01-25 09:40:00,
2013-01-25 01:44:00,58.4,47.1,30.10,ESE,113,8.0,0.0,66,0.00,CLR,FEW,0.01,0.0,WeatherDisplay:10.37,2013-01-25 09:44:00,
2013-01-25 01:45:00,58.4,46.7,30.10,SE,132,9.9,11.5,65,0.00,CLR,FEW,0.01,0.0,WeatherDisplay:10.37,2013-01-25 09:45:00,
2013-01-25 01:46:00,58.4,46.7,30.10,SE,125,0.0,10.4,65,0.00,CLR,FEW,0.01,0.0,WeatherDisplay:10.37,2013-01-25 09:46:00,
2013-01-25 01:50:00,59.0,46.4,30.10,ESE,121,11.6,14.3,63,0.00,CLR,FEW,0.01,0.0,WeatherDisplay:10.37,2013-01-25 09:50:00,
2013-01-25 01:51:00,59.2,46.2,30.10,ESE,122,12.7,16.1,62,0.00,CLR,FEW,0.01,0.0,WeatherDisplay:10.37,2013-01-25 09:51:00,
2013-01-25 01:52:00,59.2,46.2,30.10,ESE,114,14.6,14.6,62,0.00,CLR,FEW,0.01,0.0,WeatherDisplay:10.37,2013-01-25 09:52:00,
2013-01-25 01:56:00,59.3,46.3,30.10,ESE,115,5.1,11.5,62,0.00,CLR,FEW,0.01,0.0,WeatherDisplay:10.37,2013-01-25 09:56:00,
2013-01-25 01:57:00,59.3,46.3,30.10,East,85,4.3,11.5,62,0.00,CLR,FEW,0.01,0.0,WeatherDisplay:10.37,2013-01-25 09:57:00,
2013-01-25 02:02:00,59.0,46.4,30.10,ESE,117,0.5,3.5,63,0.00,CLR,FEW,0.01,0.0,WeatherDisplay:10.37,2013-01-25 10:02:00,
2013-01-25 02:03:00,59.0,46.4,30.10,ESE,117,5.5,10.4,63,0.00,CLR,FEW,0.01,0.0,WeatherDisplay:10.37,2013-01-25 10:03:00,
2013-01-25 02:07:00,58.7,46.5,30.10,ESE,104,0.0,0.0,64,0.00,CLR,FEW,0.01,0.0,WeatherDisplay:10.37,2013-01-25 10:07:00,
2013-01-25 02:08:00,58.6,46.5,30.10,East,92,0.0,0.0,64,0.00,CLR,FEW,0.01,0.0,WeatherDisplay:10.37,2013-01-25 10:08:00,
2013-01-25 02:12:00,58.3,46.6,30.10,SE,129,0.0,0.0,65,0.00,CLR,FEW,0.01,0.0,WeatherDisplay:10.37,2013-01-25 10:12:00,
2013-01-25 02:13:00,58.0,46.7,30.10,ESE,117,0.0,0.0,66,0.00,CLR,FEW,0.01,0.0,WeatherDisplay:10.37,2013-01-25 10:13:00,
2013-01-25 02:14:00,58.0,46.7,30.10,ESE,117,0.0,0.0,66,0.00,CLR,FEW,0.01,0.0,WeatherDisplay:10.37,2013-01-25 10:14:00,
2013-01-25 02:17:00,57.5,47.0,30.10,East,88,0.0,0.0,68,0.00,CLR,FEW,0.01,0.0,WeatherDisplay:10.37,2013-01-25 10:17:00,
2013-01-25 02:18:00,57.3,46.8,30.10,East,95,1.2,3.5,68,0.00,CLR,FEW,0.01,0.0,WeatherDisplay:10.37,2013-01-25 10:18:00,
2013-01-25 02:19:00,57.3,46.8,30.10,ESE,112,1.0,0.0,68,0.00,CLR,FEW,0.01,0.0,WeatherDisplay:10.37,2013-01-25 10:19:00,
2013-01-25 02:22:00,57.5,47.0,30.10,ESE,102,2.2,9.2,68,0.00,CLR,FEW,0.01,0.0,WeatherDisplay:10.37,2013-01-25 10:22:00,
2013-01-25 02:23:00,57.5,46.6,30.10,ESE,113,6.2,10.4,67,0.00,CLR,FEW,0.01,0.0,WeatherDisplay:10.37,2013-01-25 10:23:00,
2013-01-25 02:24:00,57.6,46.7,30.10,ESE,102,3.8,10.4,67,0.00,CLR,FEW,0.01,0.0,WeatherDisplay:10.37,2013-01-25 10:24:00,
2013-01-25 02:25:00,57.5,47.0,30.10,ESE,102,0.0,9.2,68,0.00,CLR,FEW,0.01,0.0,WeatherDisplay:10.37,2013-01-25 10:25:00,
2013-01-25 02:27:00,57.5,46.6,30.10,East,101,0.0,0.0,67,0.00,CLR,FEW,0.01,0.0,WeatherDisplay:10.37,2013-01-25 10:27:00,
2013-01-25 02:29:00,57.5,46.6,30.10,ESE,103,0.0,0.0,67,0.00,CLR,FEW,0.01,0.0,WeatherDisplay:10.37,2013-01-25 10:29:00,
2013-01-25 02:30:00,57.5,47.0,30.09,ESE,109,0.0,0.0,68,0.00,CLR,FEW,0.01,0.0,WeatherDisplay:10.37,2013-01-25 10:30:00,
2013-01-25 02:32:00,57.5,47.0,30.09,East,97,0.0,0.0,68,0.00,CLR,FEW,0.01,0.0,WeatherDisplay:10.37,2013-01-25 10:32:00,
2013-01-25 02:33:00,57.5,47.0,30.09,East,92,0.0,0.0,68,0.00,CLR,FEW,0.01,0.0,WeatherDisplay:10.37,2013-01-25 10:33:00,
2013-01-25 02:34:00,57.5,47.0,30.09,East,94,0.0,0.0,68,0.00,CLR,FEW,0.01,0.0,WeatherDisplay:10.37,2013-01-25 10:34:00,
2013-01-25 02:35:00,57.3,46.8,30.09,ESE,103,0.0,0.0,68,0.00,CLR,FEW,0.01,0.0,WeatherDisplay:10.37,2013-01-25 10:35:00,
2013-01-25 02:38:00,57.0,47.3,30.09,East,101,0.0,0.0,70,0.00,CLR,FEW,0.01,0.0,WeatherDisplay:10.37,2013-01-25 10:38:00,
2013-01-25 02:39:00,57.0,47.3,30.09,ESE,112,1.5,5.2,70,0.00,CLR,FEW,0.01,0.0,WeatherDisplay:10.37,2013-01-25 10:39:00,
2013-01-25 02:41:00,56.7,47.0,30.09,SE,133,4.4,9.2,70,0.00,CLR,FEW,0.01,0.0,WeatherDisplay:10.37,2013-01-25 10:41:00,
2013-01-25 02:43:00,56.9,46.8,30.09,ESE,117,2.3,12.7,69,0.00,CLR,FEW,0.01,0.0,WeatherDisplay:10.37,2013-01-25 10:43:00,
2013-01-25 02:44:00,56.9,46.8,30.09,SE,126,0.3,12.7,69,0.00,CLR,FEW,0.01,0.0,WeatherDisplay:10.37,2013-01-25 10:44:00,
2013-01-25 02:48:00,57.2,46.7,30.10,SE,146,5.4,13.8,68,0.00,CLR,FEW,0.01,0.0,WeatherDisplay:10.37,2013-01-25 10:48:00,
2013-01-25 02:49:00,57.2,46.7,30.10,SE,142,0.1,9.2,68,0.00,CLR,FEW,0.01,0.0,WeatherDisplay:10.37,2013-01-25 10:49:00,
2013-01-25 02:53:00,57.5,47.4,30.10,SE,127,17.0,20.7,69,0.00,CLR,FEW,0.01,0.0,WeatherDisplay:10.37,2013-01-25 10:53:00,
2013-01-25 02:54:00,57.3,47.2,30.10,SE,142,11.9,18.4,69,0.00,CLR,FEW,0.01,0.0,WeatherDisplay:10.37,2013-01-25 10:54:00,
2013-01-25 02:56:00,57.2,47.5,30.10,SE,131,7.7,16.1,70,0.00,CLR,FEW,0.01,0.0,WeatherDisplay:10.37,2013-01-25 10:56:00,
2013-01-25 02:58:00,57.0,48.1,30.10,SE,140,0.0,0.0,72,0.00,CLR,FEW,0.01,0.0,WeatherDisplay:10.37,2013-01-25 10:58:00,
2013-01-25 02:59:00,56.7,48.1,30.11,SE,132,0.2,0.0,73,0.00,CLR,FEW,0.01,0.0,WeatherDisplay:10.37,2013-01-25 10:59:00,
2013-01-25 03:00:00,56.6,48.0,30.11,SE,133,0.0,1.1,73,0.00,CLR,FEW,0.01,0.0,WeatherDisplay:10.37,2013-01-25 11:00:00,
2013-01-25 03:01:00,56.6,48.4,30.11,SE,140,0.0,1.1,74,0.00,CLR,FEW,0.01,0.0,WeatherDisplay:10.37,2013-01-25 11:01:00,
2013-01-25 03:04:00,56.0,48.5,30.11,ESE,120,0.0,10.4,76,0.01,RA,FEW,0.02,0.0,WeatherDisplay:10.37,2013-01-25 11:04:00,
2013-01-25 03:05:00,55.9,48.8,30.11,SE,130,5.5,9.2,77,0.01,RA,FEW,0.02,0.0,WeatherDisplay:10.37,2013-01-25 11:05:00,
2013-01-25 03:06:00,55.7,48.9,30.11,SE,144,17.8,19.6,78,0.01,RA,FEW,0.02,0.0,WeatherDisplay:10.37,2013-01-25 11:06:00,
2013-01-25 03:07:00,55.7,48.9,30.11,SE,128,16.5,19.6,78,0.01,RA,FEW,0.02,0.0,WeatherDisplay:10.37,2013-01-25 11:07:00,
2013-01-25 03:10:00,55.6,48.8,30.11,ESE,107,16.3,19.6,78,0.02,RA,FEW,0.04,0.0,WeatherDisplay:10.37,2013-01-25 11:10:00,
2013-01-25 03:11:00,55.7,48.9,30.11,SE,126,4.0,18.4,78,0.02,RA,FEW,0.04,0.0,WeatherDisplay:10.37,2013-01-25 11:11:00,
2013-01-25 03:12:00,55.9,49.1,30.11,ESE,119,0.1,6.9,78,0.02,RA,FEW,0.04,0.0,WeatherDisplay:10.37,2013-01-25 11:12:00,
2013-01-25 03:15:00,56.0,48.9,30.11,ESE,102,8.4,13.8,77,0.04,RA,FEW,0.05,0.0,WeatherDisplay:10.37,2013-01-25 11:15:00,
2013-01-25 03:16:00,55.9,48.8,30.11,East,98,2.7,11.7,77,0.04,RA,FEW,0.05,0.0,WeatherDisplay:10.37,2013-01-25 11:16:00,
2013-01-25 03:17:00,55.9,48.8,30.11,East,90,2.3,11.5,77,0.04,RA,FEW,0.05,0.0,WeatherDisplay:10.37,2013-01-25 11:17:00,
2013-01-25 03:18:00,55.7,48.6,30.11,ESE,105,0.0,10.4,77,0.04,RA,FEW,0.06,0.0,WeatherDisplay:10.37,2013-01-25 11:18:00,
2013-01-25 03:20:00,55.6,48.5,30.11,North,5,0.0,0.0,77,0.05,RA,FEW,0.06,0.0,WeatherDisplay:10.37,2013-01-25 11:20:00,
2013-01-25 03:21:00,55.6,48.8,30.11,NNW,348,0.0,0.0,78,0.05,RA,FEW,0.06,0.0,WeatherDisplay:10.37,2013-01-25 11:21:00,
2013-01-25 03:22:00,55.6,48.8,30.11,NNW,348,0.0,0.0,78,0.05,RA,FEW,0.06,0.0,WeatherDisplay:10.37,2013-01-25 11:22:00,
2013-01-25 03:25:00,55.4,48.7,30.11,NNE,27,0.0,0.0,78,0.06,RA,FEW,0.07,0.0,WeatherDisplay:10.37,2013-01-25 11:25:00,
2013-01-25 03:27:00,55.3,48.9,30.11,NNE,28,0.0,0.0,79,0.06,RA,FEW,0.07,0.0,WeatherDisplay:10.37,2013-01-25 11:27:00,
2013-01-25 03:30:00,54.8,48.7,30.10,NE,53,0.0,0.0,80,0.06,RA,FEW,0.07,0.0,WeatherDisplay:10.37,2013-01-25 11:30:00,
2013-01-25 03:32:00,54.7,48.6,30.10,NNE,15,0.0,0.0,80,0.06,RA,FEW,0.07,0.0,WeatherDisplay:10.37,2013-01-25 11:32:00,
2013-01-25 03:36:00,54.5,48.8,30.10,NNE,25,0.0,0.0,81,0.06,CLR,FEW,0.07,0.0,WeatherDisplay:10.37,2013-01-25 11:36:00,
2013-01-25 03:37:00,54.5,48.8,30.10,NNE,25,0.0,0.0,81,0.06,CLR,FEW,0.07,0.0,WeatherDisplay:10.37,2013-01-25 11:37:00,
2013-01-25 03:38:00,54.5,48.8,30.10,NNE,25,0.0,0.0,81,0.06,CLR,FEW,0.08,0.0,WeatherDisplay:10.37,2013-01-25 11:38:00,
2013-01-25 03:41:00,54.5,48.8,30.10,NNE,25,0.0,0.0,81,0.07,RA,FEW,0.08,0.0,WeatherDisplay:10.37,2013-01-25 11:41:00,
2013-01-25 03:42:00,54.5,48.8,30.10,NNE,25,0.0,0.0,81,0.07,RA,FEW,0.08,0.0,WeatherDisplay:10.37,2013-01-25 11:42:00,
2013-01-25 03:43:00,54.5,48.8,30.10,NNE,25,0.0,0.0,81,0.07,RA,FEW,0.08,0.0,WeatherDisplay:10.37,2013-01-25 11:43:00,
2013-01-25 03:46:00,54.5,48.8,30.09,ENE,62,0.0,0.0,81,0.07,RA,FEW,0.08,0.0,WeatherDisplay:10.37,2013-01-25 11:46:00,
2013-01-25 03:48:00,54.4,48.7,30.09,East,94,0.0,0.0,81,0.07,RA,FEW,0.08,0.0,WeatherDisplay:10.37,2013-01-25 11:48:00,
2013-01-25 03:49:00,54.4,48.7,30.09,East,94,0.0,0.0,81,0.07,,FEW,0.08,0.0,WeatherDisplay:10.37,2013-01-25 11:49:00,
2013-01-25 03:52:00,54.1,48.4,30.09,ENE,74,0.0,0.0,81,0.07,CLR,FEW,0.08,0.0,WeatherDisplay:10.37,2013-01-25 11:52:00,
2013-01-25 03:53:00,54.1,48.4,30.09,ENE,64,0.0,0.0,81,0.07,CLR,FEW,0.08,0.0,WeatherDisplay:10.37,2013-01-25 11:53:00,
2013-01-25 03:54:00,54.1,48.4,30.09,East,94,0.0,0.0,81,0.07,CLR,FEW,0.08,0.0,WeatherDisplay:10.37,2013-01-25 11:54:00,
2013-01-25 03:58:00,54.1,48.1,30.09,East,89,2.0,9.2,80,0.07,CLR,FEW,0.08,0.0,WeatherDisplay:10.37,2013-01-25 11:58:00,
2013-01-25 03:59:00,54.1,48.1,30.09,ESE,115,2.6,9.1,80,0.07,CLR,FEW,0.08,0.0,WeatherDisplay:10.37,2013-01-25 11:59:00,
2013-01-25 04:00:00,54.1,47.7,30.07,ESE,114,1.8,9.2,79,0.07,CLR,FEW,0.08,0.0,WeatherDisplay:10.37,2013-01-25 12:00:00,
2013-01-25 04:04:00,54.1,47.7,30.07,ESE,109,0.0,0.0,79,0.06,CLR,FEW,0.08,0.0,WeatherDisplay:10.37,2013-01-25 12:04:00,
2013-01-25 04:05:00,54.1,47.4,30.07,ESE,117,6.1,10.4,78,0.06,CLR,FEW,0.08,0.0,WeatherDisplay:10.37,2013-01-25 12:05:00,
2013-01-25 04:09:00,54.1,47.4,30.07,East,91,5.1,11.5,78,0.06,CLR,FEW,0.08,0.0,WeatherDisplay:10.37,2013-01-25 12:09:00,
2013-01-25 04:10:00,54.2,47.1,30.07,East,98,0.5,6.9,77,0.05,CLR,FEW,0.08,0.0,WeatherDisplay:10.37,2013-01-25 12:10:00,
2013-01-25 04:13:00,54.2,46.8,30.07,ENE,77,3.6,9.2,76,0.05,CLR,FEW,0.08,0.0,WeatherDisplay:10.37,2013-01-25 12:13:00,
2013-01-25 04:14:00,54.2,46.8,30.07,ESE,111,10.4,11.7,76,0.05,CLR,FEW,0.08,0.0,WeatherDisplay:10.37,2013-01-25 12:14:00,
2013-01-25 04:16:00,54.2,46.8,30.07,ESE,104,11.3,12.7,76,0.04,CLR,FEW,0.08,0.0,WeatherDisplay:10.37,2013-01-25 12:16:00,
2013-01-25 04:18:00,54.2,46.4,30.07,ESE,104,0.8,6.9,75,0.04,CLR,FEW,0.08,0.0,WeatherDisplay:10.37,2013-01-25 12:18:00,
2013-01-25 04:19:00,54.2,46.4,30.07,East,94,0.9,6.9,75,0.02,CLR,FEW,0.08,0.0,WeatherDisplay:10.37,2013-01-25 12:19:00,
2013-01-25 04:23:00,54.2,46.1,30.07,ESE,104,8.1,14.3,74,0.02,CLR,FEW,0.08,0.0,WeatherDisplay:10.37,2013-01-25 12:23:00,
2013-01-25 04:24:00,54.2,46.1,30.07,ESE,113,17.7,17.7,74,0.01,CLR,FEW,0.08,0.0,WeatherDisplay:10.37,2013-01-25 12:24:00,
2013-01-25 04:26:00,54.5,46.0,30.07,SE,144,18.1,18.1,73,0.01,CLR,FEW,0.08,0.0,WeatherDisplay:10.37,2013-01-25 12:26:00,
2013-01-25 04:28:00,54.7,45.8,30.07,ESE,112,18.0,18.4,72,0.01,CLR,FEW,0.08,0.0,WeatherDisplay:10.37,2013-01-25 12:28:00,
2013-01-25 04:29:00,54.7,45.8,30.07,SE,126,14.1,17.3,72,0.01,CLR,FEW,0.08,0.0,WeatherDisplay:10.37,2013-01-25 12:29:00,
2013-01-25 04:31:00,54.7,45.8,30.06,East,84,10.9,12.7,72,0.01,CLR,FEW,0.08,0.0,WeatherDisplay:10.37,2013-01-25 12:31:00,
2013-01-25 04:34:00,54.7,45.8,30.06,SE,125,11.3,13.8,72,0.01,CLR,FEW,0.08,0.0,WeatherDisplay:10.37,2013-01-25 12:34:00,
2013-01-25 04:36:00,54.8,45.9,30.06,East,94,13.2,17.3,72,0.01,CLR,FEW,0.08,0.0,WeatherDisplay:10.37,2013-01-25 12:36:00,
2013-01-25 04:37:00,54.8,45.9,30.06,ESE,104,12.6,16.1,72,0.01,CLR,FEW,0.08,0.0,WeatherDisplay:10.37,2013-01-25 12:37:00,
2013-01-25 04:39:00,55.0,45.8,30.06,ESE,109,4.2,10.4,71,0.00,CLR,FEW,0.08,0.0,WeatherDisplay:10.37,2013-01-25 12:39:00,
2013-01-25 04:41:00,55.0,45.8,30.06,ESE,111,9.7,15.6,71,0.00,CLR,FEW,0.08,0.0,WeatherDisplay:10.37,2013-01-25 12:41:00,
2013-01-25 04:42:00,55.1,45.9,30.06,ESE,115,13.5,17.3,71,0.00,CLR,FEW,0.08,0.0,WeatherDisplay:10.37,2013-01-25 12:42:00,
2013-01-25 04:45:00,55.1,45.9,30.06,SE,134,12.2,17.3,71,0.00,CLR,FEW,0.08,0.0,WeatherDisplay:10.37,2013-01-25 12:45:00,
2013-01-25 04:46:00,55.1,45.9,30.06,East,101,5.8,11.5,71,0.00,CLR,FEW,0.08,0.0,WeatherDisplay:10.37,2013-01-25 12:46:00,
2013-01-25 04:47:00,55.1,45.9,30.06,East,92,5.7,12.7,71,0.00,CLR,FEW,0.08,0.0,WeatherDisplay:10.37,2013-01-25 12:47:00,
2013-01-25 04:48:00,55.1,45.9,30.06,ESE,109,0.9,11.5,71,0.00,CLR,FEW,0.08,0.0,WeatherDisplay:10.37,2013-01-25 12:48:00,
2013-01-25 04:50:00,55.1,45.9,30.06,East,90,0.0,0.0,71,0.00,CLR,FEW,0.08,0.0,WeatherDisplay:10.37,2013-01-25 12:50:00,
2013-01-25 04:52:00,55.0,46.1,30.06,East,92,0.0,0.0,72,0.00,CLR,FEW,0.08,0.0,WeatherDisplay:10.37,2013-01-25 12:52:00,
2013-01-25 04:53:00,55.0,46.1,30.06,East,101,0.0,0.0,72,0.00,CLR,FEW,0.08,0.0,WeatherDisplay:10.37,2013-01-25 12:53:00,
2013-01-25 04:57:00,55.0,46.1,30.06,East,90,0.0,0.0,72,0.00,CLR,FEW,0.08,0.0,WeatherDisplay:10.37,2013-01-25 12:57:00,
2013-01-25 04:58:00,55.0,46.1,30.06,SE,126,0.0,0.0,72,0.00,CLR,FEW,0.08,0.0,WeatherDisplay:10.37,2013-01-25 12:58:00,
2013-01-25 04:59:00,55.1,45.9,30.06,East,101,2.6,9.2,71,0.00,CLR,FEW,0.08,0.0,WeatherDisplay:10.37,2013-01-25 12:59:00,
2013-01-25 05:00:00,55.3,45.7,30.06,ESE,109,0.9,9.2,70,0.00,CLR,FEW,0.08,0.0,WeatherDisplay:10.37,2013-01-25 13:00:00,
2013-01-25 05:02:00,55.4,45.8,30.06,ESE,107,0.0,0.0,70,0.00,CLR,FEW,0.08,0.0,WeatherDisplay:10.37,2013-01-25 13:02:00,
2013-01-25 05:04:00,55.4,45.8,30.06,ESE,106,0.0,0.0,70,0.00,CLR,FEW,0.08,0.0,WeatherDisplay:10.37,2013-01-25 13:04:00,
2013-01-25 05:05:00,55.4,46.2,30.06,ESE,106,0.0,0.0,71,0.00,CLR,FEW,0.08,0.0,WeatherDisplay:10.37,2013-01-25 13:05:00,
2013-01-25 05:07:00,55.4,46.2,30.06,NE,56,0.0,0.0,71,0.00,CLR,FEW,0.08,0.0,WeatherDisplay:10.37,2013-01-25 13:07:00,
2013-01-25 05:09:00,55.4,46.5,30.06,NE,56,0.0,0.0,72,0.00,CLR,FEW,0.08,0.0,WeatherDisplay:10.37,2013-01-25 13:09:00,
2013-01-25 05:10:00,55.4,46.5,30.06,NE,56,0.0,0.0,72,0.00,CLR,FEW,0.08,0.0,WeatherDisplay:10.37,2013-01-25 13:10:00,
2013-01-25 05:11:00,55.4,46.5,30.06,NE,56,0.0,0.0,72,0.00,CLR,FEW,0.08,0.0,WeatherDisplay:10.37,2013-01-25 13:11:00,
2013-01-25 05:13:00,55.3,46.8,30.06,NE,49,0.0,0.0,73,0.00,CLR,FEW,0.08,0.0,WeatherDisplay:10.37,2013-01-25 13:13:00,
2013-01-25 05:14:00,55.3,46.8,30.07,ENE,57,0.0,0.0,73,0.00,CLR,FEW,0.08,0.0,WeatherDisplay:10.37,2013-01-25 13:14:00,
2013-01-25 05:15:00,55.3,46.8,30.07,NNE,24,0.0,0.0,73,0.00,CLR,FEW,0.08,0.0,WeatherDisplay:10.37,2013-01-25 13:15:00,
2013-01-25 05:16:00,55.3,46.8,30.07,NNE,26,0.0,0.0,73,0.00,CLR,FEW,0.08,0.0,WeatherDisplay:10.37,2013-01-25 13:16:00,
2013-01-25 05:18:00,55.3,46.8,30.07,NNE,26,0.0,0.0,73,0.00,CLR,FEW,0.08,0.0,WeatherDisplay:10.37,2013-01-25 13:18:00,
2013-01-25 05:20:00,55.3,46.4,30.07,NNE,29,0.0,0.0,72,0.00,CLR,FEW,0.08,0.0,WeatherDisplay:10.37,2013-01-25 13:20:00,
2013-01-25 05:21:00,55.4,46.5,30.07,NNE,30,0.0,0.0,72,0.00,CLR,FEW,0.08,0.0,WeatherDisplay:10.37,2013-01-25 13:21:00,
2013-01-25 05:23:00,55.6,46.3,30.07,ENE,75,0.0,0.0,71,0.00,CLR,FEW,0.08,0.0,WeatherDisplay:10.37,2013-01-25 13:23:00,
2013-01-25 05:25:00,56.0,46.4,30.07,ENE,69,0.6,5.8,70,0.00,CLR,FEW,0.08,0.0,WeatherDisplay:10.37,2013-01-25 13:25:00,
2013-01-25 05:26:00,56.0,46.4,30.07,East,89,0.0,0.0,70,0.00,CLR,FEW,0.08,0.0,WeatherDisplay:10.37,2013-01-25 13:26:00,
2013-01-25 05:27:00,56.3,46.3,30.07,East,87,0.0,0.0,69,0.00,CLR,FEW,0.08,0.0,WeatherDisplay:10.37,2013-01-25 13:27:00,
2013-01-25 05:29:00,56.5,46.1,30.07,NE,47,0.0,0.0,68,0.00,CLR,FEW,0.08,0.0,WeatherDisplay:10.37,2013-01-25 13:29:00,
2013-01-25 05:30:00,56.6,46.2,30.07,East,86,3.0,3.0,68,0.00,CLR,FEW,0.08,0.0,WeatherDisplay:10.37,2013-01-25 13:30:00,
2013-01-25 05:31:00,56.7,46.3,30.07,ENE,78,0.0,9.2,68,0.00,CLR,FEW,0.08,0.0,WeatherDisplay:10.37,2013-01-25 13:31:00,
2013-01-25 05:32:00,56.9,46.1,30.07,East,95,0.9,5.8,67,0.00,CLR,FEW,0.08,0.0,WeatherDisplay:10.37,2013-01-25 13:32:00,
2013-01-25 05:35:00,56.9,46.1,30.07,East,91,0.0,0.0,67,0.00,CLR,FEW,0.08,0.0,WeatherDisplay:10.37,2013-01-25 13:35:00,
2013-01-25 05:36:00,56.9,46.1,30.07,East,99,0.0,0.0,67,0.00,CLR,FEW,0.08,0.0,WeatherDisplay:10.37,2013-01-25 13:36:00,
2013-01-25 05:37:00,56.9,46.1,30.07,ESE,103,0.1,0.0,67,0.00,CLR,FEW,0.08,0.0,WeatherDisplay:10.37,2013-01-25 13:37:00,
2013-01-25 05:41:00,56.9,46.1,30.07,ESE,107,0.0,0.0,67,0.00,CLR,FEW,0.08,0.0,WeatherDisplay:10.37,2013-01-25 13:41:00,
2013-01-25 05:42:00,56.9,46.4,30.07,East,100,0.0,0.0,68,0.00,CLR,FEW,0.08,0.0,WeatherDisplay:10.37,2013-01-25 13:42:00,
2013-01-25 05:43:00,56.9,46.4,30.07,East,100,0.0,0.0,68,0.00,CLR,FEW,0.08,0.0,WeatherDisplay:10.37,2013-01-25 13:43:00,
2013-01-25 05:46:00,56.6,46.9,30.07,East,101,0.0,0.0,70,0.00,CLR,FEW,0.08,0.0,WeatherDisplay:10.37,2013-01-25 13:46:00,
2013-01-25 05:47:00,56.5,46.8,30.07,ESE,103,0.0,0.0,70,0.00,CLR,FEW,0.08,0.0,WeatherDisplay:10.37,2013-01-25 13:47:00,
2013-01-25 05:48:00,56.5,46.8,30.07,ESE,109,0.5,5.8,70,0.00,CLR,FEW,0.08,0.0,WeatherDisplay:10.37,2013-01-25 13:48:00,
2013-01-25 05:51:00,56.3,46.6,30.07,ESE,122,12.8,16.1,70,0.00,CLR,FEW,0.08,0.0,WeatherDisplay:10.37,2013-01-25 13:51:00,
2013-01-25 05:52:00,56.5,46.8,30.07,SE,135,6.1,16.1,70,0.00,CLR,FEW,0.08,0.0,WeatherDisplay:10.37,2013-01-25 13:52:00,
2013-01-25 05:53:00,56.5,46.8,30.07,SE,128,0.0,0.0,70,0.00,CLR,FEW,0.08,0.0,WeatherDisplay:10.37,2013-01-25 13:53:00,
2013-01-25 05:56:00,56.2,46.5,30.07,SE,128,0.0,0.0,70,0.00,CLR,FEW,0.08,0.0,WeatherDisplay:10.37,2013-01-25 13:56:00,
2013-01-25 05:58:00,56.0,46.7,30.07,SE,128,0.0,0.0,71,0.00,CLR,FEW,0.08,0.0,WeatherDisplay:10.37,2013-01-25 13:58:00,
2013-01-25 05:59:00,56.0,46.7,30.07,SE,128,0.0,0.0,71,0.00,CLR,FEW,0.08,0.0,WeatherDisplay:10.37,2013-01-25 13:59:00,
2013-01-25 06:02:00,55.7,46.8,30.09,SE,128,0.0,0.0,72,0.00,CLR,FEW,0.08,0.0,WeatherDisplay:10.37,2013-01-25 14:02:00,
2013-01-25 06:04:00,55.7,47.2,30.09,SE,128,0.0,0.0,73,0.00,CLR,FEW,0.08,0.0,WeatherDisplay:10.37,2013-01-25 14:04:00,
2013-01-25 06:05:00,55.7,47.2,30.09,SE,128,0.0,0.0,73,0.00,CLR,FEW,0.08,0.0,WeatherDisplay:10.37,2013-01-25 14:05:00,
2013-01-25 06:07:00,55.7,47.2,30.09,SE,128,0.0,0.0,73,0.00,CLR,FEW,0.08,0.0,WeatherDisplay:10.37,2013-01-25 14:07:00,
2013-01-25 06:09:00,55.7,47.2,30.09,SE,128,0.0,0.0,73,0.00,CLR,FEW,0.08,0.0,WeatherDisplay:10.37,2013-01-25 14:09:00,
2013-01-25 06:10:00,55.6,47.1,30.09,SE,128,0.0,0.0,73,0.00,CLR,FEW,0.08,0.0,WeatherDisplay:10.37,2013-01-25 14:10:00,
2013-01-25 06:12:00,55.6,47.1,30.09,SE,128,0.0,0.0,73,0.00,CLR,FEW,0.08,0.0,WeatherDisplay:10.37,2013-01-25 14:12:00,
2013-01-25 06:14:00,55.6,47.4,30.09,SE,128,0.0,0.0,74,0.00,CLR,FEW,0.08,0.0,WeatherDisplay:10.37,2013-01-25 14:14:00,
2013-01-25 06:16:00,55.6,47.4,30.10,SE,128,0.0,0.0,74,0.00,CLR,FEW,0.08,0.0,WeatherDisplay:10.37,2013-01-25 14:16:00,
2013-01-25 06:17:00,55.4,47.2,30.10,SE,128,0.0,0.0,74,0.00,CLR,FEW,0.08,0.0,WeatherDisplay:10.37,2013-01-25 14:17:00,
2013-01-25 06:19:00,55.4,47.2,30.10,SE,128,0.0,0.0,74,0.00,OVC,FEW,0.08,0.0,WeatherDisplay:10.37,2013-01-25 14:19:00,
2013-01-25 06:21:00,55.4,47.6,30.10,SE,128,0.0,0.0,75,0.00,OVC,FEW,0.08,0.0,WeatherDisplay:10.37,2013-01-25 14:21:00,
2013-01-25 06:22:00,55.4,47.6,30.10,SE,128,0.0,0.0,75,0.00,OVC,FEW,0.08,0.0,WeatherDisplay:10.37,2013-01-25 14:22:00,
2013-01-25 06:24:00,55.3,47.5,30.10,SE,128,0.0,0.0,75,0.00,OVC,FEW,0.08,0.0,WeatherDisplay:10.37,2013-01-25 14:24:00,
2013-01-25 06:27:00,55.3,47.9,30.10,SE,128,0.0,0.0,76,0.00,OVC,FEW,0.08,0.0,WeatherDisplay:10.37,2013-01-25 14:27:00,
2013-01-25 06:28:00,55.3,47.9,30.10,SE,128,0.0,0.0,76,0.00,OVC,FEW,0.08,0.0,WeatherDisplay:10.37,2013-01-25 14:28:00,
2013-01-25 06:30:00,55.1,48.0,30.10,SE,128,0.0,0.0,77,0.00,OVC,FEW,0.08,0.0,WeatherDisplay:10.37,2013-01-25 14:30:00,
2013-01-25 06:33:00,54.8,48.1,30.10,SE,128,0.0,0.0,78,0.00,OVC,FEW,0.08,0.0,WeatherDisplay:10.37,2013-01-25 14:33:00,
2013-01-25 06:35:00,54.7,48.0,30.10,SE,128,0.0,0.0,78,0.00,OVC,FEW,0.08,0.0,WeatherDisplay:10.37,2013-01-25 14:35:00,
2013-01-25 06:36:00,54.7,48.0,30.10,SE,128,0.0,0.0,78,0.00,OVC,FEW,0.08,0.0,WeatherDisplay:10.37,2013-01-25 14:36:00,
2013-01-25 06:38:00,54.7,48.0,30.10,SE,128,0.0,0.0,78,0.00,OVC,FEW,0.08,0.0,WeatherDisplay:10.37,2013-01-25 14:38:00,
2013-01-25 06:40:00,54.7,48.0,30.10,SE,128,0.0,0.0,78,0.00,OVC,FEW,0.08,0.0,WeatherDisplay:10.37,2013-01-25 14:40:00,
2013-01-25 06:42:00,54.7,48.0,30.10,SE,128,0.0,0.0,78,0.00,OVC,FEW,0.08,0.0,WeatherDisplay:10.37,2013-01-25 14:42:00,
2013-01-25 06:43:00,54.7,48.0,30.10,SE,128,0.0,0.0,78,0.00,OVC,FEW,0.08,0.0,WeatherDisplay:10.37,2013-01-25 14:43:00,
2013-01-25 06:44:00,54.7,48.0,30.10,SE,128,0.0,0.0,78,0.00,OVC,FEW,0.08,0.0,WeatherDisplay:10.37,2013-01-25 14:44:00,
2013-01-25 06:45:00,54.7,48.0,30.10,SE,128,0.0,0.0,78,0.00,OVC,FEW,0.08,0.0,WeatherDisplay:10.37,2013-01-25 14:45:00,
2013-01-25 06:47:00,54.7,48.0,30.10,SE,128,0.0,0.0,78,0.00,OVC,FEW,0.08,0.0,WeatherDisplay:10.37,2013-01-25 14:47:00,
2013-01-25 06:49:00,54.8,48.1,30.10,SE,128,0.0,0.0,78,0.00,OVC,FEW,0.08,0.0,WeatherDisplay:10.37,2013-01-25 14:49:00,
2013-01-25 06:50:00,54.8,48.1,30.10,SE,128,0.0,0.0,78,0.00,OVC,FEW,0.08,0.0,WeatherDisplay:10.37,2013-01-25 14:50:00,
2013-01-25 06:54:00,54.8,48.1,30.10,SE,128,0.0,0.0,78,0.00,OVC,FEW,0.08,0.0,WeatherDisplay:10.37,2013-01-25 14:54:00,
2013-01-25 06:55:00,54.8,48.1,30.10,SE,128,0.0,0.0,78,0.00,OVC,FEW,0.08,0.0,WeatherDisplay:10.37,2013-01-25 14:55:00,
2013-01-25 06:56:00,54.8,48.1,30.10,SE,128,0.0,0.0,78,0.00,OVC,FEW,0.08,0.0,WeatherDisplay:10.37,2013-01-25 14:56:00,
2013-01-25 06:59:00,54.7,48.3,30.10,SE,128,0.0,0.0,79,0.00,OVC,FEW,0.08,0.0,WeatherDisplay:10.37,2013-01-25 14:59:00,
2013-01-25 07:00:00,54.7,48.3,30.10,SE,128,0.0,0.0,79,0.00,OVC,FEW,0.08,0.0,WeatherDisplay:10.37,2013-01-25 15:00:00,
2013-01-25 07:01:00,54.7,48.3,30.10,SE,128,0.0,0.0,79,0.00,OVC,FEW,0.08,0.0,WeatherDisplay:10.37,2013-01-25 15:01:00,
2013-01-25 07:02:00,54.7,48.3,30.10,SE,128,0.0,0.0,79,0.00,OVC,FEW,0.08,0.0,WeatherDisplay:10.37,2013-01-25 15:02:00,
2013-01-25 07:04:00,54.7,48.3,30.10,SE,128,0.0,0.0,79,0.00,BKN,FEW,0.08,5.3,WeatherDisplay:10.37,2013-01-25 15:04:00,
2013-01-25 07:06:00,54.5,48.1,30.10,SE,128,0.0,0.0,79,0.00,BKN,FEW,0.08,5.3,WeatherDisplay:10.37,2013-01-25 15:06:00,
2013-01-25 07:08:00,54.7,48.3,30.10,NNE,28,0.0,0.0,79,0.00,BKN,FEW,0.08,5.3,WeatherDisplay:10.37,2013-01-25 15:08:00,
2013-01-25 07:09:00,54.7,48.3,30.10,NNE,30,0.0,0.0,79,0.00,BKN,FEW,0.08,7.4,WeatherDisplay:10.37,2013-01-25 15:09:00,
2013-01-25 07:13:00,55.0,48.6,30.10,ESE,105,0.0,0.0,79,0.00,BKN,FEW,0.08,7.4,WeatherDisplay:10.37,2013-01-25 15:13:00,
2013-01-25 07:14:00,55.0,48.6,30.10,ESE,104,0.0,0.0,79,0.00,BKN,FEW,0.08,7.4,WeatherDisplay:10.37,2013-01-25 15:14:00,
2013-01-25 07:18:00,55.9,47.7,30.10,ESE,120,2.4,13.8,74,0.00,BKN,FEW,0.08,9.5,WeatherDisplay:10.37,2013-01-25 15:18:00,
2013-01-25 07:19:00,55.9,47.7,30.10,SE,128,4.6,10.4,74,0.00,BKN,FEW,0.08,9.5,WeatherDisplay:10.37,2013-01-25 15:19:00,
2013-01-25 07:20:00,56.0,47.1,30.10,ESE,105,8.2,10.4,72,0.00,BKN,FEW,0.08,9.5,WeatherDisplay:10.37,2013-01-25 15:20:00,
2013-01-25 07:24:00,56.3,46.6,30.10,SE,125,5.9,13.0,70,0.00,BKN,FEW,0.08,11.6,WeatherDisplay:10.37,2013-01-25 15:24:00,
2013-01-25 07:26:00,56.5,46.8,30.10,SE,128,6.9,10.4,70,0.00,BKN,FEW,0.08,11.6,WeatherDisplay:10.37,2013-01-25 15:26:00,
2013-01-25 07:29:00,56.2,46.5,30.10,ESE,105,11.2,16.1,70,0.00,BKN,FEW,0.08,14.7,WeatherDisplay:10.37,2013-01-25 15:29:00,
2013-01-25 07:30:00,56.2,46.5,30.10,East,96,4.6,12.7,70,0.00,BKN,FEW,0.08,16.8,WeatherDisplay:10.37,2013-01-25 15:30:00,
2013-01-25 07:31:00,56.2,46.5,30.10,ESE,121,6.4,11.5,70,0.00,BKN,FEW,0.08,18.9,WeatherDisplay:10.37,2013-01-25 15:31:00,
2013-01-25 07:34:00,55.9,46.6,30.10,SE,128,10.7,13.0,71,0.00,BKN,FEW,0.10,22.1,WeatherDisplay:10.37,2013-01-25 15:34:00,
2013-01-25 07:36:00,55.7,46.4,30.10,SE,137,10.2,17.3,71,0.01,RA,FEW,0.10,22.1,WeatherDisplay:10.37,2013-01-25 15:36:00,
2013-01-25 07:39:00,55.6,46.7,30.10,ESE,121,10.7,17.3,72,0.01,RA,FEW,0.10,20.0,WeatherDisplay:10.37,2013-01-25 15:39:00,
2013-01-25 07:40:00,55.6,46.7,30.10,ESE,115,10.7,12.7,72,0.01,RA,FEW,0.10,20.0,WeatherDisplay:10.37,2013-01-25 15:40:00,
2013-01-25 07:41:00,55.6,47.1,30.10,SE,129,1.7,12.7,73,0.01,RA,FEW,0.10,20.0,WeatherDisplay:10.37,2013-01-25 15:41:00,
2013-01-25 07:42:00,55.4,46.9,30.10,ESE,116,4.8,15.6,73,0.01,RA,FEW,0.10,18.9,WeatherDisplay:10.37,2013-01-25 15:42:00,
2013-01-25 07:44:00,55.4,46.9,30.10,SE,134,9.2,17.3,73,0.01,RA,FEW,0.10,18.9,WeatherDisplay:10.37,2013-01-25 15:44:00,
2013-01-25 07:45:00,55.4,46.9,30.10,SE,130,14.0,14.3,73,0.01,BKN,FEW,0.10,16.8,WeatherDisplay:10.37,2013-01-25 15:45:00,
2013-01-25 07:46:00,55.4,46.9,30.10,ESE,107,11.9,19.5,73,0.01,BKN,FEW,0.10,16.8,WeatherDisplay:10.37,2013-01-25 15:46:00,
2013-01-25 07:47:00,55.4,46.9,30.10,ESE,111,15.2,19.6,73,0.01,BKN,FEW,0.10,16.8,WeatherDisplay:10.37,2013-01-25 15:47:00,
2013-01-25 07:50:00,55.1,47.0,30.10,SE,129,6.8,11.7,74,0.01,BKN,FEW,0.10,18.9,WeatherDisplay:10.37,2013-01-25 15:50:00,
2013-01-25 07:51:00,55.1,47.0,30.10,ESE,109,9.0,13.8,74,0.01,BKN,FEW,0.10,20.0,WeatherDisplay:10.37,2013-01-25 15:51:00,
2013-01-25 07:52:00,55.0,46.9,30.10,SE,130,4.3,12.7,74,0.01,BKN,FEW,0.10,22.1,WeatherDisplay:10.37,2013-01-25 15:52:00,
2013-01-25 07:55:00,55.0,47.2,30.10,ESE,108,9.7,16.1,75,0.01,BKN,FEW,0.10,22.1,WeatherDisplay:10.37,2013-01-25 15:55:00,
2013-01-25 07:56:00,55.0,47.2,30.10,ESE,113,4.9,16.1,75,0.01,BKN,FEW,0.10,24.2,WeatherDisplay:10.37,2013-01-25 15:56:00,
2013-01-25 07:57:00,55.0,47.2,30.10,ESE,116,8.6,11.7,75,0.01,BKN,FEW,0.10,24.2,WeatherDisplay:10.37,2013-01-25 15:57:00,
2013-01-25 07:58:00,55.0,47.2,30.10,ESE,116,10.1,17.3,75,0.01,BKN,FEW,0.10,26.3,WeatherDisplay:10.37,2013-01-25 15:58:00,
2013-01-25 08:00:00,55.0,47.2,30.11,ESE,118,2.3,10.4,75,0.01,BKN,FEW,0.10,27.3,WeatherDisplay:10.37,2013-01-25 16:00:00,
2013-01-25 08:01:00,55.0,47.6,30.11,ESE,116,0.3,10.4,76,0.01,BKN,FEW,0.10,27.3,WeatherDisplay:10.37,2013-01-25 16:01:00,
2013-01-25 08:02:00,55.0,47.6,30.11,ESE,105,1.0,6.9,76,0.01,BKN,FEW,0.10,27.3,WeatherDisplay:10.37,2013-01-25 16:02:00,
2013-01-25 08:04:00,55.0,47.6,30.11,ESE,113,2.0,0.0,76,0.01,RA,FEW,0.11,26.3,WeatherDisplay:10.37,2013-01-25 16:04:00,
2013-01-25 08:05:00,55.0,47.9,30.11,ESE,118,0.0,1.1,77,0.02,RA,FEW,0.11,26.3,WeatherDisplay:10.37,2013-01-25 16:05:00,
2013-01-25 08:06:00,55.0,47.9,30.11,ESE,122,0.0,0.0,77,0.02,RA,FEW,0.11,22.1,WeatherDisplay:10.37,2013-01-25 16:06:00,
2013-01-25 08:07:00,54.8,47.7,30.11,East,96,0.0,0.0,77,0.02,RA,FEW,0.11,22.1,WeatherDisplay:10.37,2013-01-25 16:07:00,
2013-01-25 08:10:00,55.0,47.9,30.11,East,101,0.0,0.0,77,0.02,RA,FEW,0.11,20.0,WeatherDisplay:10.37,2013-01-25 16:10:00,
2013-01-25 08:11:00,55.0,48.3,30.11,East,101,0.0,0.0,78,0.02,RA,FEW,0.11,20.0,WeatherDisplay:10.37,2013-01-25 16:11:00,
2013-01-25 08:12:00,55.0,48.3,30.11,East,101,0.0,0.0,78,0.02,RA,FEW,0.11,22.1,WeatherDisplay:10.37,2013-01-25 16:12:00,
2013-01-25 08:13:00,55.0,48.3,30.11,East,101,0.0,0.0,78,0.02,RA,FEW,0.11,22.1,WeatherDisplay:10.37,2013-01-25 16:13:00,
2013-01-25 08:15:00,55.0,48.3,30.12,East,101,0.0,0.0,78,0.02,BKN,FEW,0.11,26.3,WeatherDisplay:10.37,2013-01-25 16:15:00,
2013-01-25 08:17:00,55.0,48.3,30.12,East,101,0.0,0.0,78,0.02,BKN,FEW,0.12,31.5,WeatherDisplay:10.37,2013-01-25 16:17:00,
2013-01-25 08:18:00,55.0,48.3,30.12,East,101,0.0,0.0,78,0.04,RA,FEW,0.12,31.5,WeatherDisplay:10.37,2013-01-25 16:18:00,
2013-01-25 08:21:00,55.0,48.3,30.12,East,88,0.0,0.0,78,0.04,RA,FEW,0.12,41.0,WeatherDisplay:10.37,2013-01-25 16:21:00,
2013-01-25 08:22:00,55.0,48.3,30.12,East,88,0.0,0.0,78,0.04,RA,FEW,0.12,44.1,WeatherDisplay:10.37,2013-01-25 16:22:00,
2013-01-25 08:23:00,55.0,48.3,30.12,East,88,0.0,0.0,78,0.04,RA,FEW,0.12,44.1,WeatherDisplay:10.37,2013-01-25 16:23:00,
2013-01-25 08:26:00,55.0,48.3,30.12,ENE,78,0.0,0.0,78,0.04,RA,FEW,0.12,49.4,WeatherDisplay:10.37,2013-01-25 16:26:00,
2013-01-25 08:28:00,55.0,48.3,30.12,ENE,78,0.0,0.0,78,0.04,BKN,FEW,0.12,49.4,WeatherDisplay:10.37,2013-01-25 16:28:00,
2013-01-25 08:29:00,55.0,48.3,30.12,ENE,78,0.0,0.0,78,0.04,BKN,FEW,0.12,55.7,WeatherDisplay:10.37,2013-01-25 16:29:00,
2013-01-25 08:30:00,55.1,48.7,30.12,ENE,78,0.0,0.0,79,0.04,BKN,FEW,0.12,55.7,WeatherDisplay:10.37,2013-01-25 16:30:00,
2013-01-25 08:31:00,55.1,48.7,30.12,ENE,78,0.0,0.0,79,0.04,BKN,FEW,0.12,60.9,WeatherDisplay:10.37,2013-01-25 16:31:00,
2013-01-25 08:34:00,55.1,48.7,30.12,ENE,78,0.0,0.0,79,0.04,BKN,FEW,0.12,65.1,WeatherDisplay:10.37,2013-01-25 16:34:00,
2013-01-25 08:35:00,55.1,48.7,30.12,ENE,78,0.0,0.0,79,0.02,BKN,FEW,0.12,65.1,WeatherDisplay:10.37,2013-01-25 16:35:00,
2013-01-25 08:38:00,55.3,49.2,30.12,ENE,78,0.0,0.0,80,0.02,BKN,FEW,0.12,51.5,WeatherDisplay:10.37,2013-01-25 16:38:00,
2013-01-25 08:39:00,55.3,49.2,30.12,ENE,78,0.0,0.0,80,0.02,BKN,FEW,0.12,48.3,WeatherDisplay:10.37,2013-01-25 16:39:00,
2013-01-25 08:40:00,55.3,49.2,30.12,ENE,78,0.0,0.0,80,0.02,BKN,FEW,0.12,48.3,WeatherDisplay:10.37,2013-01-25 16:40:00,
2013-01-25 08:43:00,55.3,49.2,30.12,ENE,78,0.0,0.0,80,0.02,BKN,FEW,0.12,55.7,WeatherDisplay:10.37,2013-01-25 16:43:00,
2013-01-25 08:44:00,55.3,49.2,30.13,ENE,78,0.0,0.0,80,0.02,BKN,FEW,0.12,56.7,WeatherDisplay:10.37,2013-01-25 16:44:00,
2013-01-25 08:46:00,55.4,49.7,30.13,ENE,78,0.0,0.0,81,0.02,BKN,FEW,0.12,66.2,WeatherDisplay:10.37,2013-01-25 16:46:00,
2013-01-25 08:49:00,55.6,49.9,30.13,ENE,78,0.0,0.0,81,0.02,BKN,FEW,0.12,75.6,WeatherDisplay:10.37,2013-01-25 16:49:00,
2013-01-25 08:50:00,55.6,49.9,30.13,ENE,78,0.0,0.0,81,0.02,BKN,FEW,0.12,75.6,WeatherDisplay:10.37,2013-01-25 16:50:00,
2013-01-25 08:51:00,55.7,50.0,30.13,ENE,78,0.0,0.0,81,0.02,BKN,FEW,0.12,75.6,WeatherDisplay:10.37,2013-01-25 16:51:00,
2013-01-25 08:54:00,55.7,50.3,30.13,ENE,78,0.0,0.0,82,0.00,BKN,FEW,0.12,80.9,WeatherDisplay:10.37,2013-01-25 16:54:00,
2013-01-25 08:55:00,55.7,50.3,30.13,ENE,78,0.0,0.0,82,0.02,BKN,FEW,0.12,80.9,WeatherDisplay:10.37,2013-01-25 16:55:00,
2013-01-25 08:56:00,55.7,50.3,30.13,ENE,78,0.0,0.0,82,0.02,BKN,FEW,0.12,83.0,WeatherDisplay:10.37,2013-01-25 16:56:00,
2013-01-25 08:57:00,55.7,50.3,30.13,ENE,78,0.0,0.0,82,0.02,BKN,FEW,0.12,85.0,WeatherDisplay:10.37,2013-01-25 16:57:00,
2013-01-25 09:00:00,55.7,50.0,30.14,East,82,0.0,0.0,81,0.02,BKN,FEW,0.12,95.6,WeatherDisplay:10.37,2013-01-25 17:00:00,
2013-01-25 09:01:00,55.7,50.3,30.14,East,82,0.0,0.0,82,0.02,BKN,FEW,0.12,95.6,WeatherDisplay:10.37,2013-01-25 17:01:00,
2013-01-25 09:02:00,55.7,50.3,30.14,East,82,0.0,0.0,82,0.02,BKN,FEW,0.12,95.6,WeatherDisplay:10.37,2013-01-25 17:02:00,
2013-01-25 09:05:00,55.7,50.6,30.14,East,82,0.0,0.0,83,0.01,BKN,FEW,0.12,85.0,WeatherDisplay:10.37,2013-01-25 17:05:00,
2013-01-25 09:07:00,55.7,50.3,30.14,East,82,0.0,0.0,82,0.01,BKN,FEW,0.12,80.9,WeatherDisplay:10.37,2013-01-25 17:07:00,
2013-01-25 09:11:00,55.9,50.8,30.14,East,82,0.0,0.0,83,0.01,BKN,FEW,0.12,70.4,WeatherDisplay:10.37,2013-01-25 17:11:00,
2013-01-25 09:12:00,55.9,50.8,30.14,East,82,0.0,0.0,83,0.01,BKN,FEW,0.12,72.5,WeatherDisplay:10.37,2013-01-25 17:12:00,
2013-01-25 09:13:00,55.9,50.8,30.14,East,82,0.0,0.0,83,0.01,BKN,FEW,0.12,80.9,WeatherDisplay:10.37,2013-01-25 17:13:00,
2013-01-25 09:16:00,56.0,50.9,30.14,East,82,0.0,0.0,83,0.02,RA,FEW,0.13,95.6,WeatherDisplay:10.37,2013-01-25 17:16:00,
2013-01-25 09:17:00,56.0,50.9,30.14,East,82,0.0,0.0,83,0.02,RA,FEW,0.13,95.6,WeatherDisplay:10.37,2013-01-25 17:17:00,
2013-01-25 09:19:00,56.0,50.9,30.14,East,82,0.0,0.0,83,0.01,RA,FEW,0.13,99.8,WeatherDisplay:10.37,2013-01-25 17:19:00,
2013-01-25 09:22:00,56.0,50.9,30.14,East,82,0.0,0.0,83,0.01,RA,FEW,0.13,109.2,WeatherDisplay:10.37,2013-01-25 17:22:00,
2013-01-25 09:24:00,56.0,50.9,30.14,East,82,0.0,0.0,83,0.01,BKN,FEW,0.13,110.3,WeatherDisplay:10.37,2013-01-25 17:24:00,
2013-01-25 09:28:00,55.9,50.8,30.14,East,85,0.0,0.0,83,0.01,BKN,FEW,0.13,126.0,WeatherDisplay:10.37,2013-01-25 17:28:00,
2013-01-25 09:29:00,55.9,50.8,30.14,East,85,0.0,0.0,83,0.01,BKN,FEW,0.13,126.0,WeatherDisplay:10.37,2013-01-25 17:29:00,
2013-01-25 09:30:00,55.9,51.1,30.14,East,85,0.0,0.0,84,0.01,BKN,FEW,0.13,133.3,WeatherDisplay:10.37,2013-01-25 17:30:00,
2013-01-25 09:34:00,56.0,51.2,30.14,East,85,0.0,0.0,84,0.01,BKN,FEW,0.13,143.8,WeatherDisplay:10.37,2013-01-25 17:34:00,
2013-01-25 09:35:00,56.0,51.2,30.14,East,85,0.0,0.0,84,0.00,BKN,FEW,0.13,143.8,WeatherDisplay:10.37,2013-01-25 17:35:00,
2013-01-25 09:36:00,56.0,51.2,30.14,East,85,0.0,0.0,84,0.01,BKN,FEW,0.13,143.8,WeatherDisplay:10.37,2013-01-25 17:36:00,
2013-01-25 09:39:00,55.7,50.6,30.14,ESE,123,0.0,0.0,83,0.01,BKN,FEW,0.13,143.8,WeatherDisplay:10.37,2013-01-25 17:39:00,
2013-01-25 09:40:00,55.4,50.3,30.14,ESE,103,0.0,0.0,83,0.01,BKN,FEW,0.13,148.1,WeatherDisplay:10.37,2013-01-25 17:40:00,
2013-01-25 09:42:00,55.4,50.3,30.14,ESE,103,0.0,0.0,83,0.01,BKN,FEW,0.13,153.3,WeatherDisplay:10.37,2013-01-25 17:42:00,
2013-01-25 09:44:00,55.4,50.3,30.14,ESE,103,0.0,0.0,83,0.01,BKN,FEW,0.13,158.6,WeatherDisplay:10.37,2013-01-25 17:44:00,
2013-01-25 09:45:00,55.6,50.5,30.14,ESE,103,0.0,0.0,83,0.01,BKN,FEW,0.13,162.8,WeatherDisplay:10.37,2013-01-25 17:45:00,
2013-01-25 09:47:00,55.6,50.5,30.14,ESE,103,0.0,0.0,83,0.01,BKN,FEW,0.13,168.0,WeatherDisplay:10.37,2013-01-25 17:47:00,
2013-01-25 09:48:00,55.7,50.6,30.14,ESE,103,0.0,0.0,83,0.01,BKN,FEW,0.13,171.2,WeatherDisplay:10.37,2013-01-25 17:48:00,
2013-01-25 09:49:00,55.7,50.6,30.14,ESE,103,0.0,0.0,83,0.01,BKN,FEW,0.13,175.3,WeatherDisplay:10.37,2013-01-25 17:49:00,
2013-01-25 09:50:00,55.7,50.6,30.14,ESE,103,0.0,0.0,83,0.01,BKN,FEW,0.13,180.6,WeatherDisplay:10.37,2013-01-25 17:50:00,
2013-01-25 09:53:00,55.6,50.5,30.14,ESE,117,0.0,1.1,83,0.01,BKN,FEW,0.13,182.7,WeatherDisplay:10.37,2013-01-25 17:53:00,
2013-01-25 09:55:00,55.6,50.2,30.14,ESE,117,0.0,0.0,82,0.01,BKN,FEW,0.13,188.0,WeatherDisplay:10.37,2013-01-25 17:55:00,
2013-01-25 09:58:00,55.6,50.2,30.14,ESE,119,0.0,0.0,82,0.01,BKN,FEW,0.13,199.5,WeatherDisplay:10.37,2013-01-25 17:58:00,
2013-01-25 09:59:00,55.4,50.0,30.13,ESE,121,0.6,0.0,82,0.01,BKN,FEW,0.13,206.9,WeatherDisplay:10.37,2013-01-25 17:59:00,
2013-01-25 10:00:00,55.4,50.0,30.13,ESE,111,1.3,3.5,82,0.01,BKN,FEW,0.13,212.1,WeatherDisplay:10.37,2013-01-25 18:00:00,
2013-01-25 10:01:00,55.6,49.9,30.13,ESE,113,0.0,5.8,81,0.01,BKN,FEW,0.13,214.2,WeatherDisplay:10.37,2013-01-25 18:01:00,
2013-01-25 10:03:00,55.7,50.0,30.13,SE,130,1.7,0.0,81,0.01,BKN,FEW,0.13,214.2,WeatherDisplay:10.37,2013-01-25 18:03:00,
2013-01-25 10:04:00,55.7,50.0,30.13,ESE,115,0.0,6.9,81,0.01,BKN,FEW,0.13,209.0,WeatherDisplay:10.37,2013-01-25 18:04:00,
2013-01-25 10:05:00,55.7,50.0,30.13,ESE,121,0.0,0.0,81,0.01,BKN,FEW,0.13,199.5,WeatherDisplay:10.37,2013-01-25 18:05:00,
2013-01-25 10:06:00,55.7,50.0,30.13,SE,124,0.0,0.0,81,0.01,BKN,FEW,0.13,186.9,WeatherDisplay:10.37,2013-01-25 18:06:00,
2013-01-25 10:09:00,56.0,50.3,30.13,ESE,107,0.0,0.0,81,0.01,BKN,FEW,0.13,151.2,WeatherDisplay:10.37,2013-01-25 18:09:00,
2013-01-25 10:10:00,56.0,49.9,30.13,SE,124,0.0,0.0,80,0.01,BKN,FEW,0.13,149.1,WeatherDisplay:10.37,2013-01-25 18:10:00,
2013-01-25 10:12:00,56.2,50.1,30.13,SE,124,0.0,0.0,80,0.01,BKN,FEW,0.13,156.5,WeatherDisplay:10.37,2013-01-25 18:12:00,
2013-01-25 10:14:00,56.3,50.5,30.13,SE,124,0.0,0.0,81,0.00,BKN,FEW,0.13,160.7,WeatherDisplay:10.37,2013-01-25 18:14:00,
2013-01-25 10:15:00,56.5,50.4,30.12,SE,124,0.0,0.0,80,0.00,BKN,FEW,0.13,160.7,WeatherDisplay:10.37,2013-01-25 18:15:00,
2013-01-25 10:16:00,56.5,50.4,30.12,SE,124,0.0,0.0,80,0.00,BKN,FEW,0.13,156.5,WeatherDisplay:10.37,2013-01-25 18:16:00,
2013-01-25 10:17:00,56.5,50.4,30.12,SE,124,0.0,0.0,80,0.00,BKN,FEW,0.13,153.3,WeatherDisplay:10.37,2013-01-25 18:17:00,
2013-01-25 10:19:00,56.5,50.4,30.12,SE,128,0.1,0.0,80,0.00,BKN,FEW,0.13,148.1,WeatherDisplay:10.37,2013-01-25 18:19:00,
2013-01-25 10:20:00,56.3,49.9,30.12,ESE,102,1.7,6.9,79,0.00,BKN,FEW,0.13,141.8,WeatherDisplay:10.37,2013-01-25 18:20:00,
2013-01-25 10:22:00,56.5,50.1,30.12,ESE,113,0.0,0.0,79,0.00,BKN,FEW,0.13,134.4,WeatherDisplay:10.37,2013-01-25 18:22:00,
2013-01-25 10:23:00,56.5,50.1,30.12,ESE,113,0.0,0.0,79,0.00,BKN,FEW,0.13,133.3,WeatherDisplay:10.37,2013-01-25 18:23:00,
2013-01-25 10:25:00,56.5,50.1,30.12,ESE,113,0.0,0.0,79,0.00,BKN,FEW,0.13,129.2,WeatherDisplay:10.37,2013-01-25 18:25:00,
2013-01-25 10:26:00,56.5,50.1,30.12,ESE,114,0.0,0.0,79,0.00,BKN,FEW,0.13,131.3,WeatherDisplay:10.37,2013-01-25 18:26:00,
2013-01-25 10:27:00,56.5,49.7,30.12,ESE,114,0.0,0.0,78,0.00,BKN,FEW,0.13,131.3,WeatherDisplay:10.37,2013-01-25 18:27:00,
2013-01-25 10:29:00,56.5,50.1,30.12,ESE,114,0.0,0.0,79,0.00,BKN,FEW,0.13,131.3,WeatherDisplay:10.37,2013-01-25 18:29:00,
2013-01-25 10:30:00,56.5,49.7,30.12,ESE,113,0.0,0.0,78,0.00,BKN,FEW,0.13,129.2,WeatherDisplay:10.37,2013-01-25 18:30:00,
2013-01-25 10:32:00,56.5,50.1,30.12,ESE,114,0.0,0.0,79,0.00,BKN,FEW,0.13,127.1,WeatherDisplay:10.37,2013-01-25 18:32:00,
2013-01-25 10:33:00,56.6,50.2,30.12,ESE,113,0.0,0.0,79,0.00,BKN,FEW,0.13,129.2,WeatherDisplay:10.37,2013-01-25 18:33:00,
2013-01-25 10:35:00,56.6,50.2,30.12,ESE,114,0.0,0.0,79,0.00,BKN,FEW,0.13,138.6,WeatherDisplay:10.37,2013-01-25 18:35:00,
2013-01-25 10:36:00,56.6,50.2,30.12,ESE,114,0.0,0.0,79,0.00,BKN,FEW,0.13,143.8,WeatherDisplay:10.37,2013-01-25 18:36:00,
2013-01-25 10:37:00,56.6,50.2,30.12,ESE,114,0.0,0.0,79,0.00,BKN,FEW,0.13,149.1,WeatherDisplay:10.37,2013-01-25 18:37:00,
2013-01-25 10:41:00,56.7,50.3,30.12,ESE,113,0.0,0.0,79,0.00,BKN,FEW,0.13,146.0,WeatherDisplay:10.37,2013-01-25 18:41:00,
2013-01-25 10:42:00,56.7,50.6,30.12,ESE,113,0.0,0.0,80,0.00,BKN,FEW,0.13,143.8,WeatherDisplay:10.37,2013-01-25 18:42:00,
2013-01-25 10:46:00,56.9,50.8,30.11,ESE,113,0.0,0.0,80,0.00,BKN,FEW,0.13,143.8,WeatherDisplay:10.37,2013-01-25 18:46:00,
2013-01-25 10:47:00,57.0,50.9,30.11,ESE,113,0.0,0.0,80,0.00,BKN,FEW,0.13,143.8,WeatherDisplay:10.37,2013-01-25 18:47:00,
2013-01-25 10:48:00,57.2,51.1,30.11,ESE,113,0.0,0.0,80,0.00,BKN,FEW,0.13,143.8,WeatherDisplay:10.37,2013-01-25 18:48:00,
2013-01-25 10:51:00,57.3,51.2,30.11,ESE,114,0.0,0.0,80,0.00,BKN,FEW,0.13,143.8,WeatherDisplay:10.37,2013-01-25 18:51:00,
2013-01-25 10:52:00,57.3,51.2,30.11,ESE,113,0.0,0.0,80,0.00,BKN,FEW,0.13,146.0,WeatherDisplay:10.37,2013-01-25 18:52:00,
2013-01-25 10:54:00,57.3,51.5,30.11,ESE,114,0.0,0.0,81,0.00,BKN,FEW,0.13,149.1,WeatherDisplay:10.37,2013-01-25 18:54:00,
2013-01-25 10:56:00,57.3,51.5,30.11,ESE,113,0.0,0.0,81,0.00,BKN,FEW,0.13,155.4,WeatherDisplay:10.37,2013-01-25 18:56:00,
2013-01-25 10:57:00,57.5,51.7,30.11,ESE,113,0.0,0.0,81,0.00,BKN,FEW,0.13,163.8,WeatherDisplay:10.37,2013-01-25 18:57:00,
2013-01-25 10:59:00,57.6,51.8,30.10,ESE,114,0.0,0.0,81,0.00,BKN,FEW,0.13,179.6,WeatherDisplay:10.37,2013-01-25 18:59:00,
2013-01-25 11:00:00,57.6,51.8,30.10,ESE,114,0.0,0.0,81,0.01,RA,FEW,0.14,194.3,WeatherDisplay:10.37,2013-01-25 19:00:00,
2013-01-25 11:02:00,57.8,52.0,30.10,ESE,113,0.0,0.0,81,0.01,RA,FEW,0.14,199.5,WeatherDisplay:10.37,2013-01-25 19:02:00,
2013-01-25 11:04:00,58.0,52.2,30.10,ESE,114,0.0,0.0,81,0.01,RA,FEW,0.14,210.0,WeatherDisplay:10.37,2013-01-25 19:04:00,
2013-01-25 11:05:00,58.0,52.2,30.10,ESE,113,0.0,0.0,81,0.01,RA,FEW,0.14,216.3,WeatherDisplay:10.37,2013-01-25 19:05:00,
2013-01-25 11:08:00,58.1,52.3,30.10,ESE,114,0.0,0.0,81,0.01,RA,FEW,0.14,221.6,WeatherDisplay:10.37,2013-01-25 19:08:00,
2013-01-25 11:09:00,58.0,52.2,30.10,ESE,114,0.0,0.0,81,0.01,RA,FEW,0.14,228.9,WeatherDisplay:10.37,2013-01-25 19:09:00,
2013-01-25 11:10:00,58.0,52.2,30.10,ESE,113,0.0,0.0,81,0.01,RA,FEW,0.14,234.2,WeatherDisplay:10.37,2013-01-25 19:10:00,
2013-01-25 11:11:00,58.0,52.2,30.10,ESE,114,0.0,0.0,81,0.01,BKN,FEW,0.14,248.9,WeatherDisplay:10.37,2013-01-25 19:11:00,
2013-01-25 11:14:00,58.1,52.3,30.10,ESE,114,0.0,0.0,81,0.01,BKN,FEW,0.14,263.6,WeatherDisplay:10.37,2013-01-25 19:14:00,
2013-01-25 11:15:00,58.1,52.3,30.10,ESE,113,0.0,0.0,81,0.01,BKN,FEW,0.14,260.4,WeatherDisplay:10.37,2013-01-25 19:15:00,
2013-01-25 11:18:00,58.1,52.0,30.10,ESE,114,0.0,0.0,80,0.01,BKN,FEW,0.14,216.3,WeatherDisplay:10.37,2013-01-25 19:18:00,
2013-01-25 11:19:00,58.1,52.3,30.10,ESE,113,0.0,0.0,81,0.01,BKN,FEW,0.14,216.3,WeatherDisplay:10.37,2013-01-25 19:19:00,
2013-01-25 11:20:00,58.3,52.2,30.10,ESE,113,0.0,0.0,80,0.01,BKN,FEW,0.14,206.9,WeatherDisplay:10.37,2013-01-25 19:20:00,
2013-01-25 11:24:00,58.1,51.6,30.10,ESE,114,0.0,0.0,79,0.01,BKN,FEW,0.14,217.4,WeatherDisplay:10.37,2013-01-25 19:24:00,
2013-01-25 11:25:00,58.1,51.6,30.10,ESE,114,0.0,0.0,79,0.01,BKN,FEW,0.14,214.2,WeatherDisplay:10.37,2013-01-25 19:25:00,
2013-01-25 11:29:00,58.6,52.1,30.10,ESE,113,0.0,0.0,79,0.00,BKN,FEW,0.14,190.1,WeatherDisplay:10.37,2013-01-25 19:29:00,
2013-01-25 11:30:00,58.6,51.8,30.09,ESE,113,0.0,0.0,78,0.01,BKN,FEW,0.14,190.1,WeatherDisplay:10.37,2013-01-25 19:30:00,
2013-01-25 11:35:00,58.7,51.9,30.09,ESE,113,0.0,0.0,78,0.01,BKN,FEW,0.14,168.0,WeatherDisplay:10.37,2013-01-25 19:35:00,
2013-01-25 11:36:00,58.7,51.9,30.09,ESE,114,0.0,0.0,78,0.01,BKN,FEW,0.14,162.8,WeatherDisplay:10.37,2013-01-25 19:36:00,
2013-01-25 11:40:00,58.7,51.9,30.09,ESE,113,0.0,0.0,78,0.01,BKN,FEW,0.14,140.7,WeatherDisplay:10.37,2013-01-25 19:40:00,
2013-01-25 11:42:00,58.7,51.5,30.09,ESE,114,0.0,0.0,77,0.01,BKN,FEW,0.14,136.5,WeatherDisplay:10.37,2013-01-25 19:42:00,
2013-01-25 11:45:00,58.9,51.7,30.08,ESE,113,0.0,0.0,77,0.01,BKN,FEW,0.14,141.8,WeatherDisplay:10.37,2013-01-25 19:45:00,
2013-01-25 11:46:00,58.9,52.1,30.08,ESE,113,0.0,0.0,78,0.01,BKN,FEW,0.14,141.8,WeatherDisplay:10.37,2013-01-25 19:46:00,
2013-01-25 11:50:00,58.7,51.2,30.08,ESE,113,0.6,3.5,76,0.01,BKN,FEW,0.14,148.1,WeatherDisplay:10.37,2013-01-25 19:50:00,
2013-01-25 11:51:00,58.7,51.2,30.08,ESE,110,1.6,5.2,76,0.01,BKN,FEW,0.14,138.6,WeatherDisplay:10.37,2013-01-25 19:51:00,
2013-01-25 11:52:00,58.7,51.2,30.08,ESE,109,1.6,6.9,76,0.01,BKN,FEW,0.14,133.3,WeatherDisplay:10.37,2013-01-25 19:52:00,
2013-01-25 11:55:00,58.6,50.7,30.08,SSE,147,1.8,12.7,75,0.01,BKN,FEW,0.14,121.8,WeatherDisplay:10.37,2013-01-25 19:55:00,
2013-01-25 11:57:00,58.7,50.8,30.08,ESE,119,0.0,0.0,75,0.01,BKN,FEW,0.14,116.6,WeatherDisplay:10.37,2013-01-25 19:57:00,
2013-01-25 12:00:00,58.9,51.3,30.07,East,100,0.0,0.0,76,0.01,BKN,FEW,0.14,109.2,WeatherDisplay:10.37,2013-01-25 20:00:00,
2013-01-25 12:01:00,58.9,51.3,30.07,East,99,0.0,0.0,76,0.00,BKN,FEW,0.14,107.1,WeatherDisplay:10.37,2013-01-25 20:01:00,
2013-01-25 12:02:00,58.9,51.3,30.07,East,100,0.0,0.0,76,0.00,BKN,FEW,0.14,105.0,WeatherDisplay:10.37,2013-01-25 20:02:00,
2013-01-25 12:03:00,58.9,51.7,30.07,East,101,0.0,0.0,77,0.00,BKN,FEW,0.14,101.9,WeatherDisplay:10.37,2013-01-25 20:03:00,
2013-01-25 12:06:00,58.9,52.1,30.07,NNE,22,0.0,0.0,78,0.00,BKN,FEW,0.14,99.8,WeatherDisplay:10.37,2013-01-25 20:06:00,
2013-01-25 12:07:00,58.7,51.9,30.07,NNE,22,0.0,0.0,78,0.00,BKN,FEW,0.14,99.8,WeatherDisplay:10.37,2013-01-25 20:07:00,
2013-01-25 12:08:00,58.6,51.4,30.07,NNE,25,0.1,1.1,77,0.00,BKN,FEW,0.14,101.9,WeatherDisplay:10.37,2013-01-25 20:08:00,
2013-01-25 12:12:00,58.3,50.8,30.07,ESE,104,0.5,9.2,76,0.00,BKN,FEW,0.14,109.2,WeatherDisplay:10.37,2013-01-25 20:12:00,
2013-01-25 12:13:00,58.1,50.2,30.07,East,96,0.0,1.1,75,0.00,BKN,FEW,0.14,116.6,WeatherDisplay:10.37,2013-01-25 20:13:00,
2013-01-25 12:14:00,58.1,50.6,30.06,NE,48,0.5,3.9,76,0.00,BKN,FEW,0.14,121.8,WeatherDisplay:10.37,2013-01-25 20:14:00,
2013-01-25 12:17:00,58.0,50.5,30.06,ESE,123,0.0,3.5,76,0.00,BKN,FEW,0.14,136.5,WeatherDisplay:10.37,2013-01-25 20:17:00,
2013-01-25 12:18:00,58.0,50.5,30.06,East,88,0.0,3.5,76,0.00,BKN,FEW,0.14,138.6,WeatherDisplay:10.37,2013-01-25 20:18:00,
2013-01-25 12:20:00,58.1,50.9,30.06,NE,34,0.0,0.0,77,0.00,BKN,FEW,0.14,140.7,WeatherDisplay:10.37,2013-01-25 20:20:00,
2013-01-25 12:22:00,58.1,51.3,30.06,North,355,0.0,0.0,78,0.00,BKN,FEW,0.14,138.6,WeatherDisplay:10.37,2013-01-25 20:22:00,
2013-01-25 12:23:00,58.3,51.5,30.06,NNW,329,0.0,0.0,78,0.00,BKN,FEW,0.14,133.3,WeatherDisplay:10.37,2013-01-25 20:23:00,
2013-01-25 12:25:00,58.4,51.6,30.06,NNW,331,0.0,0.0,78,0.00,BKN,FEW,0.14,131.3,WeatherDisplay:10.37,2013-01-25 20:25:00,
2013-01-25 12:27:00,58.4,51.6,30.06,North,351,0.0,0.0,78,0.00,BKN,FEW,0.14,131.3,WeatherDisplay:10.37,2013-01-25 20:27:00,
2013-01-25 12:28:00,58.4,51.6,30.06,ENE,58,0.0,0.0,78,0.00,BKN,FEW,0.14,131.3,WeatherDisplay:10.37,2013-01-25 20:28:00,
2013-01-25 12:31:00,58.3,51.5,30.06,ENE,62,0.0,0.0,78,0.00,BKN,FEW,0.14,129.2,WeatherDisplay:10.37,2013-01-25 20:31:00,
2013-01-25 12:32:00,58.3,51.5,30.06,NNE,18,0.0,0.0,78,0.00,BKN,FEW,0.14,131.3,WeatherDisplay:10.37,2013-01-25 20:32:00,
2013-01-25 12:33:00,58.3,51.5,30.06,NNE,18,0.0,0.0,78,0.00,BKN,FEW,0.14,131.3,WeatherDisplay:10.37,2013-01-25 20:33:00,
2013-01-25 12:37:00,58.4,51.9,30.06,NNE,18,0.0,0.0,79,0.01,RA,FEW,0.15,129.2,WeatherDisplay:10.37,2013-01-25 20:37:00,
2013-01-25 12:38:00,58.4,51.9,30.06,North,360,0.0,0.0,79,0.01,RA,FEW,0.15,129.2,WeatherDisplay:10.37,2013-01-25 20:38:00,
2013-01-25 12:41:00,58.6,52.4,30.06,North,360,0.0,0.0,80,0.01,RA,FEW,0.15,129.2,WeatherDisplay:10.37,2013-01-25 20:41:00,
2013-01-25 12:42:00,58.6,52.4,30.06,North,360,0.0,0.0,80,0.01,RA,FEW,0.15,129.2,WeatherDisplay:10.37,2013-01-25 20:42:00,
2013-01-25 12:43:00,58.7,52.5,30.06,North,360,0.0,0.0,80,0.01,RA,FEW,0.15,127.1,WeatherDisplay:10.37,2013-01-25 20:43:00,
2013-01-25 12:47:00,58.7,52.5,30.05,NNW,345,0.0,0.0,80,0.01,BKN,FEW,0.15,127.1,WeatherDisplay:10.37,2013-01-25 20:47:00,
2013-01-25 12:48:00,58.7,52.5,30.05,NNW,346,0.0,0.0,80,0.01,BKN,FEW,0.15,131.3,WeatherDisplay:10.37,2013-01-25 20:48:00,
2013-01-25 12:49:00,58.7,52.2,30.05,ENE,57,0.0,0.0,79,0.01,BKN,FEW,0.15,133.3,WeatherDisplay:10.37,2013-01-25 20:49:00,
2013-01-25 12:53:00,58.3,51.5,30.05,NE,55,0.0,0.0,78,0.01,BKN,FEW,0.15,155.4,WeatherDisplay:10.37,2013-01-25 20:53:00,
2013-01-25 12:55:00,58.3,51.8,30.05,NE,55,0.0,0.0,79,0.01,BKN,FEW,0.15,153.3,WeatherDisplay:10.37,2013-01-25 20:55:00,
2013-01-25 12:58:00,58.3,51.5,30.05,SE,124,0.1,1.3,78,0.01,BKN,FEW,0.15,129.2,WeatherDisplay:10.37,2013-01-25 20:58:00,
2013-01-25 12:59:00,58.1,51.3,30.05,SE,124,0.1,1.1,78,0.01,BKN,FEW,0.15,127.1,WeatherDisplay:10.37,2013-01-25 20:59:00,
2013-01-25 13:00:00,58.1,50.9,30.04,SE,124,0.0,1.1,77,0.01,BKN,FEW,0.15,126.0,WeatherDisplay:10.37,2013-01-25 21:00:00,
2013-01-25 13:04:00,58.1,50.6,30.04,SE,124,0.0,0.0,76,0.01,BKN,FEW,0.15,114.5,WeatherDisplay:10.37,2013-01-25 21:04:00,
2013-01-25 13:05:00,58.1,50.6,30.04,SE,124,0.0,0.0,76,0.01,BKN,FEW,0.15,112.4,WeatherDisplay:10.37,2013-01-25 21:05:00,
2013-01-25 13:10:00,58.4,50.9,30.04,SE,124,0.0,0.0,76,0.02,RA,FEW,0.17,109.2,WeatherDisplay:10.37,2013-01-25 21:10:00,
2013-01-25 13:11:00,58.4,51.2,30.04,SE,124,0.0,0.0,77,0.02,RA,FEW,0.17,107.1,WeatherDisplay:10.37,2013-01-25 21:11:00,
2013-01-25 13:15:00,58.6,51.8,30.03,SE,124,0.0,0.0,78,0.02,RA,FEW,0.17,105.0,WeatherDisplay:10.37,2013-01-25 21:15:00,
2013-01-25 13:16:00,58.6,51.8,30.03,SE,124,0.0,0.0,78,0.02,RA,FEW,0.17,105.0,WeatherDisplay:10.37,2013-01-25 21:16:00,
2013-01-25 13:17:00,58.6,51.8,30.03,SE,124,0.0,0.0,78,0.02,RA,FEW,0.17,105.0,WeatherDisplay:10.37,2013-01-25 21:17:00,
2013-01-25 13:20:00,58.9,52.4,30.03,SE,124,0.0,0.0,79,0.02,BKN,FEW,0.17,102.9,WeatherDisplay:10.37,2013-01-25 21:20:00,
2013-01-25 13:21:00,58.9,52.4,30.03,SE,124,0.0,0.0,79,0.02,BKN,FEW,0.17,102.9,WeatherDisplay:10.37,2013-01-25 21:21:00,
2013-01-25 13:22:00,58.9,52.4,30.03,SE,124,0.0,0.0,79,0.02,BKN,FEW,0.17,102.9,WeatherDisplay:10.37,2013-01-25 21:22:00,
2013-01-25 13:23:00,59.0,52.5,30.03,SE,124,0.0,0.0,79,0.02,BKN,FEW,0.17,101.9,WeatherDisplay:10.37,2013-01-25 21:23:00,
2013-01-25 13:26:00,59.0,52.8,30.03,SE,124,0.0,0.0,80,0.02,BKN,FEW,0.17,97.7,WeatherDisplay:10.37,2013-01-25 21:26:00,
2013-01-25 13:27:00,59.2,53.0,30.03,SE,124,0.0,0.0,80,0.02,BKN,FEW,0.17,97.7,WeatherDisplay:10.37,2013-01-25 21:27:00,
2013-01-25 13:28:00,59.2,53.0,30.03,SE,124,0.0,0.0,80,0.02,BKN,FEW,0.17,97.7,WeatherDisplay:10.37,2013-01-25 21:28:00,
2013-01-25 13:29:00,59.2,53.0,30.03,SE,124,0.0,0.0,80,0.02,BKN,FEW,0.17,95.6,WeatherDisplay:10.37,2013-01-25 21:29:00,
2013-01-25 13:31:00,59.0,52.8,30.03,SE,124,0.0,0.0,80,0.02,BKN,FEW,0.17,95.6,WeatherDisplay:10.37,2013-01-25 21:31:00,
2013-01-25 13:32:00,59.0,52.8,30.03,SE,124,0.0,0.0,80,0.02,BKN,FEW,0.17,95.6,WeatherDisplay:10.37,2013-01-25 21:32:00,
2013-01-25 13:33:00,59.0,52.8,30.03,SE,124,0.0,0.0,80,0.02,BKN,FEW,0.17,95.6,WeatherDisplay:10.37,2013-01-25 21:33:00,
2013-01-25 13:34:00,59.0,52.8,30.03,SE,124,0.0,0.0,80,0.02,BKN,FEW,0.17,99.8,WeatherDisplay:10.37,2013-01-25 21:34:00,
2013-01-25 13:36:00,59.0,53.2,30.03,SE,124,0.0,0.0,81,0.01,BKN,FEW,0.17,102.9,WeatherDisplay:10.37,2013-01-25 21:36:00,
2013-01-25 13:37:00,59.0,53.2,30.03,SE,124,0.0,0.0,81,0.01,BKN,FEW,0.17,105.0,WeatherDisplay:10.37,2013-01-25 21:37:00,
2013-01-25 13:39:00,59.0,53.2,30.03,SE,124,0.0,0.0,81,0.01,BKN,FEW,0.17,101.9,WeatherDisplay:10.37,2013-01-25 21:39:00,
2013-01-25 13:42:00,59.2,53.4,30.03,SE,124,0.0,0.0,81,0.01,BKN,FEW,0.17,94.5,WeatherDisplay:10.37,2013-01-25 21:42:00,
2013-01-25 13:44:00,59.0,53.2,30.02,SE,124,0.0,0.0,81,0.01,BKN,FEW,0.17,95.6,WeatherDisplay:10.37,2013-01-25 21:44:00,
2013-01-25 13:45:00,59.0,53.2,30.02,SE,124,0.0,0.0,81,0.01,BKN,FEW,0.17,97.7,WeatherDisplay:10.37,2013-01-25 21:45:00,
2013-01-25 13:48:00,58.9,53.1,30.02,SE,124,0.0,0.0,81,0.01,BKN,FEW,0.17,92.4,WeatherDisplay:10.37,2013-01-25 21:48:00,
2013-01-25 13:49:00,58.9,53.1,30.02,SE,124,0.0,0.0,81,0.00,BKN,FEW,0.17,90.3,WeatherDisplay:10.37,2013-01-25 21:49:00,
2013-01-25 13:50:00,58.9,53.1,30.02,SE,124,0.0,0.0,81,0.01,BKN,FEW,0.17,90.3,WeatherDisplay:10.37,2013-01-25 21:50:00,
2013-01-25 13:51:00,58.9,53.1,30.02,SE,124,0.0,0.0,81,0.01,BKN,FEW,0.17,92.4,WeatherDisplay:10.37,2013-01-25 21:51:00,
2013-01-25 13:53:00,58.9,53.1,30.02,SE,124,0.0,0.0,81,0.01,BKN,FEW,0.17,97.7,WeatherDisplay:10.37,2013-01-25 21:53:00,
2013-01-25 13:54:00,58.7,52.9,30.02,SE,124,0.0,0.0,81,0.00,BKN,FEW,0.17,99.8,WeatherDisplay:10.37,2013-01-25 21:54:00,
2013-01-25 13:55:00,58.7,52.9,30.02,SE,124,0.0,0.0,81,0.01,BKN,FEW,0.17,101.9,WeatherDisplay:10.37,2013-01-25 21:55:00,
2013-01-25 13:56:00,58.7,52.9,30.02,SE,124,0.0,0.0,81,0.01,BKN,FEW,0.17,101.9,WeatherDisplay:10.37,2013-01-25 21:56:00,
2013-01-25 13:58:00,58.4,52.3,30.02,SE,126,4.4,5.8,80,0.01,BKN,FEW,0.17,105.0,WeatherDisplay:10.37,2013-01-25 21:58:00,
2013-01-25 14:00:00,58.3,52.2,30.01,ESE,115,1.9,3.9,80,0.01,BKN,FEW,0.18,110.3,WeatherDisplay:10.37,2013-01-25 22:00:00,
2013-01-25 14:01:00,58.1,51.6,30.01,ESE,117,3.1,5.8,79,0.02,RA,FEW,0.18,109.2,WeatherDisplay:10.37,2013-01-25 22:01:00,
2013-01-25 14:02:00,58.1,51.6,30.01,ESE,116,1.3,5.8,79,0.02,RA,FEW,0.18,105.0,WeatherDisplay:10.37,2013-01-25 22:02:00,
2013-01-25 14:04:00,58.0,51.2,30.01,ESE,121,0.0,0.0,78,0.02,RA,FEW,0.18,94.5,WeatherDisplay:10.37,2013-01-25 22:04:00,
2013-01-25 14:05:00,58.0,51.2,30.01,ESE,107,3.7,9.1,78,0.02,RA,FEW,0.18,85.0,WeatherDisplay:10.37,2013-01-25 22:05:00,
2013-01-25 14:06:00,58.0,51.2,30.01,ESE,112,4.1,10.4,78,0.02,RA,FEW,0.18,80.9,WeatherDisplay:10.37,2013-01-25 22:06:00,
2013-01-25 14:07:00,58.0,51.2,30.01,ESE,119,4.7,9.2,78,0.02,RA,FEW,0.18,79.8,WeatherDisplay:10.37,2013-01-25 22:07:00,
2013-01-25 14:09:00,58.0,51.2,30.01,SE,133,3.4,3.4,78,0.02,RA,FEW,0.18,79.8,WeatherDisplay:10.37,2013-01-25 22:09:00,
2013-01-25 14:10:00,57.8,51.0,30.01,ESE,118,3.0,6.9,78,0.01,RA,FEW,0.18,79.8,WeatherDisplay:10.37,2013-01-25 22:10:00,
2013-01-25 14:12:00,57.8,50.6,30.01,SE,126,1.9,10.4,77,0.01,BKN,FEW,0.18,79.8,WeatherDisplay:10.37,2013-01-25 22:12:00,
2013-01-25 14:14:00,57.8,50.6,30.01,ESE,108,0.0,0.0,77,0.01,BKN,FEW,0.18,79.8,WeatherDisplay:10.37,2013-01-25 22:14:00,
2013-01-25 14:16:00,57.8,50.6,30.01,ESE,123,0.0,6.9,77,0.01,BKN,FEW,0.18,75.6,WeatherDisplay:10.37,2013-01-25 22:16:00,
2013-01-25 14:17:00,57.8,51.0,30.01,SE,130,0.0,0.0,78,0.01,BKN,FEW,0.18,68.3,WeatherDisplay:10.37,2013-01-25 22:17:00,
2013-01-25 14:19:00,58.0,50.8,30.01,ESE,105,0.8,7.8,77,0.01,BKN,FEW,0.18,63.0,WeatherDisplay:10.37,2013-01-25 22:19:00,
2013-01-25 14:20:00,58.0,50.8,30.01,ESE,112,7.0,9.2,77,0.01,BKN,FEW,0.18,58.8,WeatherDisplay:10.37,2013-01-25 22:20:00,
2013-01-25 14:22:00,58.0,50.8,30.01,East,85,0.0,5.8,77,0.01,BKN,FEW,0.18,53.6,WeatherDisplay:10.37,2013-01-25 22:22:00,
2013-01-25 14:24:00,58.0,50.8,30.01,East,98,1.8,9.2,77,0.01,BKN,FEW,0.18,48.3,WeatherDisplay:10.37,2013-01-25 22:24:00,
2013-01-25 14:27:00,58.0,50.5,30.01,ESE,115,0.0,9.2,76,0.01,BKN,FEW,0.18,48.3,WeatherDisplay:10.37,2013-01-25 22:27:00,
2013-01-25 14:28:00,58.0,50.5,30.01,ESE,105,0.0,0.0,76,0.01,BKN,FEW,0.18,46.2,WeatherDisplay:10.37,2013-01-25 22:28:00,
2013-01-25 14:29:00,58.0,50.5,30.01,ESE,105,5.0,10.4,76,0.01,BKN,FEW,0.18,48.3,WeatherDisplay:10.37,2013-01-25 22:29:00,
2013-01-25 14:33:00,58.0,50.5,30.02,East,84,0.0,0.0,76,0.01,BKN,FEW,0.18,48.3,WeatherDisplay:10.37,2013-01-25 22:33:00,
2013-01-25 14:34:00,58.0,50.5,30.02,ESE,119,0.0,0.0,76,0.01,BKN,FEW,0.18,46.2,WeatherDisplay:10.37,2013-01-25 22:34:00,
2013-01-25 14:36:00,58.0,50.5,30.02,East,101,0.0,0.0,76,0.01,BKN,FEW,0.18,41.0,WeatherDisplay:10.37,2013-01-25 22:36:00,
2013-01-25 14:38:00,58.0,50.5,30.02,East,101,0.0,0.0,76,0.01,BKN,FEW,0.18,38.9,WeatherDisplay:10.37,2013-01-25 22:38:00,
2013-01-25 14:39:00,58.0,50.8,30.02,East,101,0.0,0.0,77,0.01,BKN,FEW,0.18,38.9,WeatherDisplay:10.37,2013-01-25 22:39:00,
2013-01-25 14:40:00,58.0,50.8,30.02,ENE,67,0.0,0.0,77,0.02,RA,FEW,0.19,42.0,WeatherDisplay:10.37,2013-01-25 22:40:00,
2013-01-25 14:41:00,58.0,50.8,30.02,ENE,67,0.0,0.0,77,0.02,RA,FEW,0.19,44.1,WeatherDisplay:10.37,2013-01-25 22:41:00,
2013-01-25 14:43:00,58.0,50.8,30.02,ENE,63,0.0,0.0,77,0.02,RA,FEW,0.19,49.4,WeatherDisplay:10.37,2013-01-25 22:43:00,
2013-01-25 14:45:00,58.0,51.2,30.01,ENE,61,0.0,0.0,78,0.02,RA,FEW,0.19,51.5,WeatherDisplay:10.37,2013-01-25 22:45:00,
2013-01-25 14:46:00,58.0,51.2,30.01,NNE,24,0.0,0.0,78,0.02,RA,FEW,0.19,49.4,WeatherDisplay:10.37,2013-01-25 22:46:00,
2013-01-25 14:49:00,58.1,51.6,30.01,NNE,24,0.0,0.0,79,0.02,RA,FEW,0.19,48.3,WeatherDisplay:10.37,2013-01-25 22:49:00,
2013-01-25 14:50:00,58.3,51.8,30.01,NNE,24,0.0,0.0,79,0.02,BKN,FEW,0.19,46.2,WeatherDisplay:10.37,2013-01-25 22:50:00,
2013-01-25 14:51:00,58.3,52.2,30.01,NNE,24,0.0,0.0,80,0.02,BKN,FEW,0.19,46.2,WeatherDisplay:10.37,2013-01-25 22:51:00,
2013-01-25 14:52:00,58.3,52.2,30.01,NNE,24,0.0,0.0,80,0.02,BKN,FEW,0.19,46.2,WeatherDisplay:10.37,2013-01-25 22:52:00,
2013-01-25 14:54:00,58.4,52.3,30.01,NNE,24,0.0,0.0,80,0.02,BKN,FEW,0.19,51.5,WeatherDisplay:10.37,2013-01-25 22:54:00,
2013-01-25 14:57:00,58.4,52.6,30.01,NNE,24,0.0,0.0,81,0.02,BKN,FEW,0.19,56.7,WeatherDisplay:10.37,2013-01-25 22:57:00,
2013-01-25 14:58:00,58.4,52.6,30.01,NNE,24,0.0,0.0,81,0.02,BKN,FEW,0.20,58.8,WeatherDisplay:10.37,2013-01-25 22:58:00,
2013-01-25 15:02:00,58.6,52.8,30.01,NNE,24,0.0,0.0,81,0.02,RA,FEW,0.20,58.8,WeatherDisplay:10.37,2013-01-25 23:02:00,
2013-01-25 15:03:00,58.6,52.8,30.01,NNE,24,0.0,0.0,81,0.02,RA,FEW,0.20,56.7,WeatherDisplay:10.37,2013-01-25 23:03:00,
2013-01-25 15:04:00,58.6,52.8,30.01,NNE,24,0.0,0.0,81,0.02,RA,FEW,0.20,56.7,WeatherDisplay:10.37,2013-01-25 23:04:00,
2013-01-25 15:07:00,58.4,52.6,30.01,NNE,24,0.0,0.0,81,0.02,RA,FEW,0.20,51.5,WeatherDisplay:10.37,2013-01-25 23:07:00,
2013-01-25 15:09:00,58.4,52.9,30.01,NNE,24,0.0,0.0,82,0.02,BKN,FEW,0.20,46.2,WeatherDisplay:10.37,2013-01-25 23:09:00,
2013-01-25 15:10:00,58.4,52.9,30.01,NNE,24,0.0,0.0,82,0.02,BKN,FEW,0.20,44.1,WeatherDisplay:10.37,2013-01-25 23:10:00,
2013-01-25 15:13:00,58.4,52.9,30.01,NNE,24,0.0,0.0,82,0.02,BKN,FEW,0.20,41.0,WeatherDisplay:10.37,2013-01-25 23:13:00,
2013-01-25 15:14:00,58.4,52.9,30.01,NNE,24,0.0,0.0,82,0.02,BKN,FEW,0.21,38.9,WeatherDisplay:10.37,2013-01-25 23:14:00,
2013-01-25 15:15:00,58.3,52.8,30.01,NNE,24,0.0,0.0,82,0.04,RA,FEW,0.21,38.9,WeatherDisplay:10.37,2013-01-25 23:15:00,
2013-01-25 15:19:00,58.3,52.8,30.01,NNE,24,0.0,0.0,82,0.04,RA,FEW,0.21,38.9,WeatherDisplay:10.37,2013-01-25 23:19:00,
2013-01-25 15:20:00,58.3,52.8,30.01,NNE,24,0.0,0.0,82,0.04,RA,FEW,0.21,38.9,WeatherDisplay:10.37,2013-01-25 23:20:00,
2013-01-25 15:21:00,58.3,52.8,30.01,NNE,24,0.0,0.0,82,0.04,RA,FEW,0.21,38.9,WeatherDisplay:10.37,2013-01-25 23:21:00,
2013-01-25 15:24:00,58.1,53.0,30.01,NNE,24,0.0,0.0,83,0.04,RA,FEW,0.21,41.0,WeatherDisplay:10.37,2013-01-25 23:24:00,
2013-01-25 15:26:00,58.1,53.0,30.01,NNE,24,0.0,0.0,83,0.04,BKN,FEW,0.21,41.0,WeatherDisplay:10.37,2013-01-25 23:26:00,
2013-01-25 15:27:00,58.1,53.0,30.01,NNE,25,0.0,0.0,83,0.04,BKN,FEW,0.21,42.0,WeatherDisplay:10.37,2013-01-25 23:27:00,
2013-01-25 15:29:00,58.0,52.5,30.01,NNE,25,0.0,0.0,82,0.04,BKN,FEW,0.21,44.1,WeatherDisplay:10.37,2013-01-25 23:29:00,
2013-01-25 15:32:00,58.0,52.9,30.01,NNE,25,0.0,0.0,83,0.04,BKN,FEW,0.21,42.0,WeatherDisplay:10.37,2013-01-25 23:32:00,
2013-01-25 15:33:00,58.0,52.9,30.01,NNE,25,0.0,0.0,83,0.04,BKN,FEW,0.21,38.9,WeatherDisplay:10.37,2013-01-25 23:33:00,
2013-01-25 15:34:00,57.8,52.7,30.01,NNE,25,0.0,0.0,83,0.04,BKN,FEW,0.21,36.8,WeatherDisplay:10.37,2013-01-25 23:34:00,
2013-01-25 15:38:00,57.8,52.7,30.01,NNE,25,0.0,0.0,83,0.05,RA,FEW,0.23,36.8,WeatherDisplay:10.37,2013-01-25 23:38:00,
2013-01-25 15:39:00,57.8,52.7,30.01,NNE,25,0.0,0.0,83,0.05,RA,FEW,0.23,36.8,WeatherDisplay:10.37,2013-01-25 23:39:00,
2013-01-25 15:40:00,57.8,52.7,30.01,NNE,23,0.0,0.0,83,0.04,RA,FEW,0.23,36.8,WeatherDisplay:10.37,2013-01-25 23:40:00,
2013-01-25 15:44:00,58.0,52.9,30.01,NNE,22,0.0,0.0,83,0.04,RA,FEW,0.23,33.6,WeatherDisplay:10.37,2013-01-25 23:44:00,
2013-01-25 15:45:00,58.0,52.9,29.99,NNE,22,0.0,0.0,83,0.04,RA,FEW,0.23,33.6,WeatherDisplay:10.37,2013-01-25 23:45:00,
2013-01-25 15:49:00,58.0,53.2,29.99,NNE,23,0.0,0.0,84,0.04,BKN,FEW,0.23,36.8,WeatherDisplay:10.37,2013-01-25 23:49:00,
2013-01-25 15:50:00,58.0,53.2,29.99,NNE,23,0.0,0.0,84,0.04,BKN,FEW,0.23,38.9,WeatherDisplay:10.37,2013-01-25 23:50:00,
2013-01-25 15:51:00,58.0,53.2,29.99,NNE,23,0.0,0.0,84,0.04,BKN,FEW,0.23,41.0,WeatherDisplay:10.37,2013-01-25 23:51:00,
2013-01-25 15:55:00,58.0,53.2,29.99,NNE,22,0.0,0.0,84,0.04,BKN,FEW,0.23,44.1,WeatherDisplay:10.37,2013-01-25 23:55:00,
2013-01-25 15:56:00,58.0,53.2,29.99,NNE,22,0.0,0.0,84,0.04,BKN,FEW,0.23,41.0,WeatherDisplay:10.37,2013-01-25 23:56:00,
2013-01-25 16:00:00,57.8,53.0,29.98,NNE,22,0.0,0.0,84,0.02,BKN,FEW,0.23,33.6,WeatherDisplay:10.37,2013-01-26 00:00:00,
2013-01-25 16:01:00,57.8,53.0,29.98,NNE,23,0.0,0.0,84,0.02,BKN,FEW,0.23,31.5,WeatherDisplay:10.37,2013-01-26 00:01:00,
2013-01-25 16:02:00,57.8,53.0,29.98,NNE,24,0.0,0.0,84,0.02,BKN,FEW,0.23,29.4,WeatherDisplay:10.37,2013-01-26 00:02:00,
2013-01-25 16:05:00,57.8,53.0,29.98,NNE,24,0.0,0.0,84,0.02,BKN,FEW,0.23,24.2,WeatherDisplay:10.37,2013-01-26 00:05:00,
2013-01-25 16:06:00,57.8,53.0,29.98,NNE,24,0.0,0.0,84,0.02,BKN,FEW,0.23,24.2,WeatherDisplay:10.37,2013-01-26 00:06:00,
2013-01-25 16:07:00,57.8,53.0,29.98,NNE,24,0.0,0.0,84,0.02,BKN,FEW,0.23,24.2,WeatherDisplay:10.37,2013-01-26 00:07:00,
2013-01-25 16:11:00,57.5,52.7,29.98,NNE,24,0.0,0.0,84,0.02,BKN,FEW,0.23,31.5,WeatherDisplay:10.37,2013-01-26 00:11:00,
2013-01-25 16:12:00,57.5,52.7,29.98,NNE,24,0.0,0.0,84,0.02,BKN,FEW,0.23,31.5,WeatherDisplay:10.37,2013-01-26 00:12:00,
2013-01-25 16:14:00,57.3,52.5,29.98,NNE,24,0.0,0.0,84,0.02,BKN,FEW,0.23,38.9,WeatherDisplay:10.37,2013-01-26 00:14:00,
2013-01-25 16:17:00,57.3,52.8,29.97,NNE,24,0.0,0.0,85,0.01,BKN,FEW,0.23,42.0,WeatherDisplay:10.37,2013-01-26 00:17:00,
2013-01-25 16:18:00,57.3,52.5,29.97,NNE,24,0.0,0.0,84,0.01,BKN,FEW,0.23,42.0,WeatherDisplay:10.37,2013-01-26 00:18:00,
2013-01-25 16:19:00,57.3,52.8,29.97,NNE,24,0.0,0.0,85,0.01,BKN,FEW,0.23,44.1,WeatherDisplay:10.37,2013-01-26 00:19:00,
2013-01-25 16:23:00,57.3,52.8,29.97,NNE,24,0.0,0.0,85,0.01,BKN,FEW,0.23,36.8,WeatherDisplay:10.37,2013-01-26 00:23:00,
2013-01-25 16:24:00,57.3,52.8,29.97,NNE,24,0.0,0.0,85,0.01,BKN,FEW,0.23,34.7,WeatherDisplay:10.37,2013-01-26 00:24:00,
2013-01-25 16:28:00,57.2,52.7,29.97,NNE,24,0.0,0.0,85,0.01,BKN,FEW,0.23,14.7,WeatherDisplay:10.37,2013-01-26 00:28:00,
2013-01-25 16:29:00,57.2,52.7,29.97,NNE,24,0.0,0.0,85,0.01,BKN,FEW,0.23,11.6,WeatherDisplay:10.37,2013-01-26 00:29:00,
2013-01-25 16:30:00,57.2,52.7,29.97,ESE,118,0.0,0.0,85,0.01,BKN,FEW,0.23,9.5,WeatherDisplay:10.37,2013-01-26 00:30:00,
2013-01-25 16:33:00,57.0,52.2,29.97,ESE,119,0.0,0.0,84,0.01,BKN,FEW,0.23,9.5,WeatherDisplay:10.37,2013-01-26 00:33:00,
2013-01-25 16:34:00,57.0,52.2,29.97,ESE,119,0.0,0.0,84,0.01,BKN,FEW,0.23,9.5,WeatherDisplay:10.37,2013-01-26 00:34:00,
2013-01-25 16:35:00,56.9,52.1,29.97,ESE,119,0.0,0.0,84,0.01,BKN,FEW,0.23,9.5,WeatherDisplay:10.37,2013-01-26 00:35:00,
2013-01-25 16:38:00,56.7,51.9,29.97,ESE,119,0.0,0.0,84,0.00,BKN,FEW,0.23,9.5,WeatherDisplay:10.37,2013-01-26 00:38:00,
2013-01-25 16:42:00,56.6,51.8,29.97,ESE,119,0.0,0.0,84,0.00,BKN,FEW,0.22,5.3,WeatherDisplay:10.37,2013-01-26 00:42:00,
2013-01-25 16:43:00,56.6,51.8,29.97,ESE,119,0.0,0.0,84,0.00,BKN,FEW,0.22,5.3,WeatherDisplay:10.37,2013-01-26 00:43:00,
2013-01-25 16:44:00,56.6,51.8,29.97,ESE,119,0.0,0.0,84,0.00,BKN,FEW,0.22,5.3,WeatherDisplay:10.37,2013-01-26 00:44:00,
2013-01-25 16:45:00,56.5,51.7,29.96,ESE,112,0.0,0.0,84,0.00,RA,FEW,0.24,5.3,WeatherDisplay:10.37,2013-01-26 00:45:00,
2013-01-25 16:47:00,56.5,51.7,29.96,ESE,119,0.0,1.1,84,0.00,BKN,FEW,0.22,5.3,WeatherDisplay:10.37,2013-01-26 00:47:00,
2013-01-25 16:48:00,56.5,51.7,29.96,ESE,119,0.0,0.0,84,0.00,BKN,FEW,0.22,5.3,WeatherDisplay:10.37,2013-01-26 00:48:00,
2013-01-25 16:50:00,56.5,51.7,29.96,ESE,118,0.0,0.0,84,0.00,BKN,FEW,0.22,7.4,WeatherDisplay:10.37,2013-01-26 00:50:00,
2013-01-25 16:52:00,56.3,51.5,29.96,ESE,118,0.0,0.0,84,0.00,BKN,FEW,0.22,7.4,WeatherDisplay:10.37,2013-01-26 00:52:00,
2013-01-25 16:53:00,56.3,51.5,29.96,ESE,118,0.0,0.0,84,0.01,RA,FEW,0.24,9.5,WeatherDisplay:10.37,2013-01-26 00:53:00,
2013-01-25 16:54:00,56.3,51.5,29.96,ESE,118,0.0,0.0,84,0.01,RA,FEW,0.24,9.5,WeatherDisplay:10.37,2013-01-26 00:54:00,
2013-01-25 16:59:00,56.3,51.5,29.96,ESE,118,0.0,0.0,84,0.02,RA,FEW,0.25,12.6,WeatherDisplay:10.37,2013-01-26 00:59:00,
2013-01-25 17:00:00,56.3,51.5,29.97,ESE,118,0.0,0.0,84,0.02,RA,FEW,0.25,11.6,WeatherDisplay:10.37,2013-01-26 01:00:00,
2013-01-25 17:04:00,56.3,51.5,29.97,ESE,118,0.0,0.0,84,0.02,RA,FEW,0.25,0.0,WeatherDisplay:10.37,2013-01-26 01:04:00,
2013-01-25 17:09:00,56.2,51.4,29.97,ESE,118,0.0,0.0,84,0.02,CLR,FEW,0.25,0.0,WeatherDisplay:10.37,2013-01-26 01:09:00,
2013-01-25 17:10:00,56.2,51.4,29.97,ESE,118,0.0,0.0,84,0.02,CLR,FEW,0.25,0.0,WeatherDisplay:10.37,2013-01-26 01:10:00,
2013-01-25 17:12:00,56.3,51.5,29.97,ESE,118,0.0,0.0,84,0.02,OVC,FEW,0.25,0.0,WeatherDisplay:10.37,2013-01-26 01:12:00,
2013-01-25 17:14:00,56.3,51.5,29.97,ESE,118,0.0,0.0,84,0.02,OVC,FEW,0.25,0.0,WeatherDisplay:10.37,2013-01-26 01:14:00,
2013-01-25 17:16:00,56.3,51.8,29.97,ESE,118,0.0,0.0,85,0.02,OVC,FEW,0.25,0.0,WeatherDisplay:10.37,2013-01-26 01:16:00,
2013-01-25 17:17:00,56.3,51.8,29.97,ESE,118,0.0,0.0,85,0.02,OVC,FEW,0.25,0.0,WeatherDisplay:10.37,2013-01-26 01:17:00,
2013-01-25 17:19:00,56.3,51.8,29.97,ESE,118,0.0,0.0,85,0.02,OVC,FEW,0.25,0.0,WeatherDisplay:10.37,2013-01-26 01:19:00,
2013-01-25 17:21:00,56.3,51.8,29.97,ESE,118,0.0,0.0,85,0.02,OVC,FEW,0.25,0.0,WeatherDisplay:10.37,2013-01-26 01:21:00,
2013-01-25 17:22:00,56.3,51.8,29.97,ESE,118,0.0,0.0,85,0.02,OVC,FEW,0.25,0.0,WeatherDisplay:10.37,2013-01-26 01:22:00,
2013-01-25 17:23:00,56.3,51.8,29.97,ESE,118,0.0,0.0,85,0.02,OVC,FEW,0.25,0.0,WeatherDisplay:10.37,2013-01-26 01:23:00,
2013-01-25 17:25:00,56.3,51.8,29.97,ESE,118,0.0,0.0,85,0.04,RA,FEW,0.26,0.0,WeatherDisplay:10.37,2013-01-26 01:25:00,
2013-01-25 17:27:00,56.3,51.8,29.97,ESE,118,0.0,0.0,85,0.04,RA,FEW,0.26,0.0,WeatherDisplay:10.37,2013-01-26 01:27:00,
2013-01-25 17:29:00,56.3,51.8,29.97,ESE,118,0.0,0.0,85,0.04,RA,FEW,0.26,0.0,WeatherDisplay:10.37,2013-01-26 01:29:00,
2013-01-25 17:30:00,56.3,51.8,29.98,ESE,118,0.0,0.0,85,0.04,RA,FEW,0.26,0.0,WeatherDisplay:10.37,2013-01-26 01:30:00,
2013-01-25 17:32:00,56.3,51.8,29.98,ESE,118,0.0,0.0,85,0.04,RA,FEW,0.26,0.0,WeatherDisplay:10.37,2013-01-26 01:32:00,
2013-01-25 17:33:00,56.3,51.8,29.98,ESE,118,0.0,0.0,85,0.04,RA,FEW,0.26,0.0,WeatherDisplay:10.37,2013-01-26 01:33:00,
2013-01-25 17:35:00,56.3,51.8,29.98,NNE,14,0.0,0.0,85,0.04,,FEW,0.26,0.0,WeatherDisplay:10.37,2013-01-26 01:35:00,
2013-01-25 17:37:00,56.3,51.8,29.98,NNE,14,0.0,0.0,85,0.04,CLR,FEW,0.26,0.0,WeatherDisplay:10.37,2013-01-26 01:37:00,
2013-01-25 17:38:00,56.3,51.8,29.98,NNE,15,0.0,0.0,85,0.04,CLR,FEW,0.26,0.0,WeatherDisplay:10.37,2013-01-26 01:38:00,
2013-01-25 17:40:00,56.3,51.8,29.98,ENE,64,0.0,0.0,85,0.04,CLR,FEW,0.26,0.0,WeatherDisplay:10.37,2013-01-26 01:40:00,
2013-01-25 17:43:00,56.3,51.8,29.98,East,100,0.0,0.0,85,0.02,CLR,FEW,0.26,0.0,WeatherDisplay:10.37,2013-01-26 01:43:00,
2013-01-25 17:45:00,56.2,51.7,29.99,East,100,0.0,0.0,85,0.02,CLR,FEW,0.27,0.0,WeatherDisplay:10.37,2013-01-26 01:45:00,
2013-01-25 17:48:00,56.2,51.4,29.99,NNE,28,0.0,0.0,84,0.04,RA,FEW,0.27,0.0,WeatherDisplay:10.37,2013-01-26 01:48:00,
2013-01-25 17:49:00,56.2,51.4,29.99,NNE,28,0.0,0.0,84,0.04,RA,FEW,0.27,0.0,WeatherDisplay:10.37,2013-01-26 01:49:00,
2013-01-25 17:51:00,56.2,51.4,29.99,NNE,28,0.0,0.0,84,0.04,RA,FEW,0.27,0.0,WeatherDisplay:10.37,2013-01-26 01:51:00,
2013-01-25 17:52:00,56.2,51.4,29.99,NNE,28,0.0,0.0,84,0.04,RA,FEW,0.27,0.0,WeatherDisplay:10.37,2013-01-26 01:52:00,
2013-01-25 17:53:00,56.2,51.4,29.99,North,355,0.0,0.0,84,0.04,RA,FEW,0.27,0.0,WeatherDisplay:10.37,2013-01-26 01:53:00,
2013-01-25 17:54:00,56.2,51.4,29.99,North,355,0.0,0.0,84,0.02,RA,FEW,0.27,0.0,WeatherDisplay:10.37,2013-01-26 01:54:00,
2013-01-25 17:57:00,56.2,51.4,29.99,North,355,0.0,0.0,84,0.02,,FEW,0.28,0.0,WeatherDisplay:10.37,2013-01-26 01:57:00,
2013-01-25 17:58:00,56.2,51.4,29.99,North,355,0.0,0.0,84,0.04,RA,FEW,0.28,0.0,WeatherDisplay:10.37,2013-01-26 01:58:00,
2013-01-25 17:59:00,56.2,51.4,29.99,North,355,0.0,0.0,84,0.04,RA,FEW,0.28,0.0,WeatherDisplay:10.37,2013-01-26 01:59:00,
2013-01-25 18:02:00,56.2,51.4,30.00,North,355,0.0,0.0,84,0.04,RA,FEW,0.28,0.0,WeatherDisplay:10.37,2013-01-26 02:02:00,
2013-01-25 18:04:00,56.2,51.4,30.00,North,355,0.0,0.0,84,0.04,RA,FEW,0.28,0.0,WeatherDisplay:10.37,2013-01-26 02:04:00,
2013-01-25 18:06:00,56.0,51.2,30.00,NE,55,0.0,0.0,84,0.04,RA,FEW,0.28,0.0,WeatherDisplay:10.37,2013-01-26 02:06:00,
2013-01-25 18:07:00,56.0,51.2,30.00,NE,55,0.0,0.0,84,0.04,RA,FEW,0.28,0.0,WeatherDisplay:10.37,2013-01-26 02:07:00,
2013-01-25 18:09:00,56.0,51.2,30.00,NE,55,0.0,0.0,84,0.05,RA,FEW,0.30,0.0,WeatherDisplay:10.37,2013-01-26 02:09:00,
2013-01-25 18:11:00,56.0,51.2,30.00,NE,55,0.0,0.0,84,0.05,RA,FEW,0.30,0.0,WeatherDisplay:10.37,2013-01-26 02:11:00,
2013-01-25 18:12:00,56.0,51.2,30.00,NE,55,0.0,0.0,84,0.05,RA,FEW,0.30,0.0,WeatherDisplay:10.37,2013-01-26 02:12:00,
2013-01-25 18:15:00,56.0,51.2,30.00,NNE,17,0.0,0.0,84,0.05,RA,FEW,0.30,0.0,WeatherDisplay:10.37,2013-01-26 02:15:00,
2013-01-25 18:16:00,56.0,51.2,30.00,ENE,74,0.0,0.0,84,0.05,RA,FEW,0.30,0.0,WeatherDisplay:10.37,2013-01-26 02:16:00,
2013-01-25 18:18:00,55.9,51.1,30.00,ENE,73,0.0,0.0,84,0.05,RA,FEW,0.30,0.0,WeatherDisplay:10.37,2013-01-26 02:18:00,
2013-01-25 18:19:00,55.9,51.1,30.00,ENE,73,0.0,0.0,84,0.05,,FEW,0.30,0.0,WeatherDisplay:10.37,2013-01-26 02:19:00,
2013-01-25 18:20:00,55.9,51.1,30.00,ENE,73,0.0,0.0,84,0.06,RA,FEW,0.31,0.0,WeatherDisplay:10.37,2013-01-26 02:20:00,
2013-01-25 18:22:00,55.9,51.1,30.00,ENE,73,0.0,0.0,84,0.06,RA,FEW,0.31,0.0,WeatherDisplay:10.37,2013-01-26 02:22:00,
2013-01-25 18:24:00,55.8,51.0,30.00,ENE,68,0.0,0.0,84,0.01,RA,FEW,0.31,0.0,WeatherDisplay:10.37,2013-01-26 02:24:00,
2013-01-25 18:26:00,55.7,50.6,30.00,North,355,0.0,0.0,83,0.05,RA,FEW,0.31,0.0,WeatherDisplay:10.37,2013-01-26 02:26:00,
2013-01-25 18:27:00,55.7,50.6,30.00,North,355,0.0,0.0,83,0.05,RA,FEW,0.31,0.0,WeatherDisplay:10.37,2013-01-26 02:27:00,
2013-01-25 18:29:00,55.7,50.6,30.01,ESE,111,0.0,0.0,83,0.05,,FEW,0.31,0.0,WeatherDisplay:10.37,2013-01-26 02:29:00,
2013-01-25 18:32:00,55.7,50.6,30.01,ENE,76,0.0,0.0,83,0.05,CLR,FEW,0.31,0.0,WeatherDisplay:10.37,2013-01-26 02:32:00,
2013-01-25 18:33:00,55.7,50.6,30.01,ENE,76,0.0,0.0,83,0.05,CLR,FEW,0.31,0.0,WeatherDisplay:10.37,2013-01-26 02:33:00,
2013-01-25 18:35:00,55.7,50.3,30.01,ENE,76,0.0,0.0,82,0.05,CLR,FEW,0.31,0.0,WeatherDisplay:10.37,2013-01-26 02:35:00,
2013-01-25 18:38:00,55.7,50.3,30.01,ENE,76,0.0,2.3,82,0.06,RA,FEW,0.32,0.0,WeatherDisplay:10.37,2013-01-26 02:38:00,
2013-01-25 18:39:00,55.7,50.3,30.01,ENE,77,0.0,1.1,82,0.06,RA,FEW,0.32,0.0,WeatherDisplay:10.37,2013-01-26 02:39:00,
2013-01-25 18:40:00,55.7,50.3,30.01,ENE,77,0.0,0.0,82,0.06,RA,FEW,0.32,0.0,WeatherDisplay:10.37,2013-01-26 02:40:00,
2013-01-25 18:43:00,55.7,50.3,30.01,ENE,76,0.0,0.0,82,0.06,RA,FEW,0.32,0.0,WeatherDisplay:10.37,2013-01-26 02:43:00,
2013-01-25 18:44:00,55.7,50.3,30.01,ENE,77,0.1,0.0,82,0.06,RA,FEW,0.32,0.0,WeatherDisplay:10.37,2013-01-26 02:44:00,
2013-01-25 18:45:00,55.7,50.3,30.01,ENE,78,0.1,1.1,82,0.06,RA,FEW,0.32,0.0,WeatherDisplay:10.37,2013-01-26 02:45:00,
2013-01-25 18:46:00,55.7,50.3,30.01,East,101,0.0,1.3,82,0.05,RA,FEW,0.32,0.0,WeatherDisplay:10.37,2013-01-26 02:46:00,
2013-01-25 18:48:00,55.9,50.2,30.01,ESE,102,0.0,0.0,81,0.05,,FEW,0.32,0.0,WeatherDisplay:10.37,2013-01-26 02:48:00,
2013-01-25 18:50:00,55.9,50.2,30.01,ESE,102,0.0,0.0,81,0.05,CLR,FEW,0.32,0.0,WeatherDisplay:10.37,2013-01-26 02:50:00,
2013-01-25 18:53:00,55.9,50.2,30.01,ESE,102,0.0,0.0,81,0.05,CLR,FEW,0.32,0.0,WeatherDisplay:10.37,2013-01-26 02:53:00,
2013-01-25 18:54:00,55.9,50.2,30.01,ESE,102,0.0,0.0,81,0.05,CLR,FEW,0.33,0.0,WeatherDisplay:10.37,2013-01-26 02:54:00,
2013-01-25 18:55:00,55.9,50.2,30.01,ESE,102,0.0,0.0,81,0.06,RA,FEW,0.33,0.0,WeatherDisplay:10.37,2013-01-26 02:55:00,
2013-01-25 18:56:00,55.9,50.2,30.01,ESE,102,0.0,0.0,81,0.06,RA,FEW,0.33,0.0,WeatherDisplay:10.37,2013-01-26 02:56:00,
2013-01-25 18:58:00,55.9,50.5,30.01,ESE,102,0.0,0.0,82,0.05,RA,FEW,0.33,0.0,WeatherDisplay:10.37,2013-01-26 02:58:00,
2013-01-25 19:00:00,55.9,50.5,30.00,ESE,102,0.0,0.0,82,0.05,RA,FEW,0.33,0.0,WeatherDisplay:10.37,2013-01-26 03:00:00,
2013-01-25 19:01:00,55.9,50.5,30.00,ESE,102,0.0,0.0,82,0.05,RA,FEW,0.33,0.0,WeatherDisplay:10.37,2013-01-26 03:01:00,
2013-01-25 19:04:00,55.9,50.5,30.00,ESE,102,0.0,0.0,82,0.05,RA,FEW,0.33,0.0,WeatherDisplay:10.37,2013-01-26 03:04:00,
2013-01-25 19:06:00,55.9,50.5,30.00,ESE,102,0.0,0.0,82,0.05,,FEW,0.33,0.0,WeatherDisplay:10.37,2013-01-26 03:06:00,
2013-01-25 19:10:00,55.9,50.8,30.00,ESE,102,0.0,0.0,83,0.05,RA,FEW,0.34,0.0,WeatherDisplay:10.37,2013-01-26 03:10:00,
2013-01-25 19:11:00,55.9,50.8,30.00,ESE,102,0.0,0.0,83,0.05,RA,FEW,0.34,0.0,WeatherDisplay:10.37,2013-01-26 03:11:00,
2013-01-25 19:15:00,55.6,50.5,30.00,ESE,102,0.0,0.0,83,0.05,RA,FEW,0.34,0.0,WeatherDisplay:10.37,2013-01-26 03:15:00,
2013-01-25 19:16:00,55.6,50.5,30.00,ESE,102,0.0,0.0,83,0.05,RA,FEW,0.34,0.0,WeatherDisplay:10.37,2013-01-26 03:16:00,
2013-01-25 19:21:00,55.3,50.2,30.00,ESE,102,0.0,0.0,83,0.04,,FEW,0.34,0.0,WeatherDisplay:10.37,2013-01-26 03:21:00,
2013-01-25 19:22:00,55.3,50.2,30.00,ESE,102,0.0,0.0,83,0.04,CLR,FEW,0.34,0.0,WeatherDisplay:10.37,2013-01-26 03:22:00,
2013-01-25 19:23:00,55.3,50.2,30.00,ESE,102,0.0,0.0,83,0.04,CLR,FEW,0.34,0.0,WeatherDisplay:10.37,2013-01-26 03:23:00,
2013-01-25 19:27:00,55.1,50.4,30.00,ESE,102,0.0,0.0,84,0.04,CLR,FEW,0.34,0.0,WeatherDisplay:10.37,2013-01-26 03:27:00,
2013-01-25 19:29:00,55.1,50.4,30.00,ESE,102,0.0,0.0,84,0.04,CLR,FEW,0.34,0.0,WeatherDisplay:10.37,2013-01-26 03:29:00,
2013-01-25 19:33:00,55.1,50.4,30.00,ESE,102,0.0,0.0,84,0.04,CLR,FEW,0.34,0.0,WeatherDisplay:10.37,2013-01-26 03:33:00,
2013-01-25 19:34:00,55.3,50.5,30.00,ESE,102,0.0,0.0,84,0.05,RA,FEW,0.36,0.0,WeatherDisplay:10.37,2013-01-26 03:34:00,
2013-01-25 19:35:00,55.3,50.5,30.00,ESE,102,0.0,0.0,84,0.05,RA,FEW,0.36,0.0,WeatherDisplay:10.37,2013-01-26 03:35:00,
2013-01-25 19:39:00,55.3,50.5,30.00,ESE,102,0.0,0.0,84,0.04,RA,FEW,0.36,0.0,WeatherDisplay:10.37,2013-01-26 03:39:00,
2013-01-25 19:40:00,55.3,50.5,30.00,ESE,102,0.0,0.0,84,0.04,RA,FEW,0.36,0.0,WeatherDisplay:10.37,2013-01-26 03:40:00,
2013-01-25 19:41:00,55.3,50.2,30.00,ESE,102,0.0,0.0,83,0.04,RA,FEW,0.36,0.0,WeatherDisplay:10.37,2013-01-26 03:41:00,
2013-01-25 19:45:00,55.4,50.3,29.99,ESE,102,0.0,0.0,83,0.04,,FEW,0.36,0.0,WeatherDisplay:10.37,2013-01-26 03:45:00,
2013-01-25 19:46:00,55.4,50.3,29.99,ESE,102,0.0,0.0,83,0.04,CLR,FEW,0.36,0.0,WeatherDisplay:10.37,2013-01-26 03:46:00,
2013-01-25 19:47:00,55.4,50.0,29.99,ESE,102,0.0,0.0,82,0.04,CLR,FEW,0.36,0.0,WeatherDisplay:10.37,2013-01-26 03:47:00,
2013-01-25 19:50:00,55.6,50.2,29.99,ESE,102,0.0,0.0,82,0.04,CLR,FEW,0.36,0.0,WeatherDisplay:10.37,2013-01-26 03:50:00,
2013-01-25 19:51:00,55.6,49.9,29.99,ESE,102,0.0,0.0,81,0.04,CLR,FEW,0.36,0.0,WeatherDisplay:10.37,2013-01-26 03:51:00,
2013-01-25 19:53:00,55.7,50.0,29.99,ESE,102,0.0,0.0,81,0.04,CLR,FEW,0.36,0.0,WeatherDisplay:10.37,2013-01-26 03:53:00,
2013-01-25 19:55:00,55.7,50.0,29.99,ESE,102,0.0,0.0,81,0.02,CLR,FEW,0.36,0.0,WeatherDisplay:10.37,2013-01-26 03:55:00,
2013-01-25 19:56:00,55.7,50.0,29.99,ESE,102,0.0,0.0,81,0.02,CLR,FEW,0.36,0.0,WeatherDisplay:10.37,2013-01-26 03:56:00,
2013-01-25 19:57:00,55.7,50.0,29.99,ESE,102,0.0,0.0,81,0.02,CLR,FEW,0.36,0.0,WeatherDisplay:10.37,2013-01-26 03:57:00,
2013-01-25 19:59:00,55.6,49.9,29.98,ESE,102,0.0,0.0,81,0.02,CLR,FEW,0.36,0.0,WeatherDisplay:10.37,2013-01-26 03:59:00,
2013-01-25 20:00:00,55.6,49.9,29.98,ESE,102,0.0,0.0,81,0.02,CLR,FEW,0.36,0.0,WeatherDisplay:10.37,2013-01-26 04:00:00,
2013-01-25 20:01:00,55.6,49.9,29.98,ESE,102,0.0,0.0,81,0.02,CLR,FEW,0.36,0.0,WeatherDisplay:10.37,2013-01-26 04:01:00,
2013-01-25 20:03:00,55.6,49.9,29.98,ESE,102,0.0,0.0,81,0.04,RA,FEW,0.37,0.0,WeatherDisplay:10.37,2013-01-26 04:03:00,
2013-01-25 20:06:00,55.4,49.7,29.98,ESE,102,0.0,0.0,81,0.04,RA,FEW,0.37,0.0,WeatherDisplay:10.37,2013-01-26 04:06:00,
2013-01-25 20:07:00,55.4,49.7,29.98,ESE,102,0.0,0.0,81,0.04,RA,FEW,0.37,0.0,WeatherDisplay:10.37,2013-01-26 04:07:00,
2013-01-25 20:08:00,55.4,49.7,29.98,ESE,102,0.0,0.0,81,0.04,RA,FEW,0.37,0.0,WeatherDisplay:10.37,2013-01-26 04:08:00,
2013-01-25 20:11:00,55.4,50.0,29.98,ESE,102,0.0,0.0,82,0.02,RA,FEW,0.37,0.0,WeatherDisplay:10.37,2013-01-26 04:11:00,
2013-01-25 20:12:00,55.3,49.9,29.98,ESE,102,0.0,0.0,82,0.02,RA,FEW,0.37,0.0,WeatherDisplay:10.37,2013-01-26 04:12:00,
2013-01-25 20:14:00,55.3,49.9,29.96,ESE,102,0.0,0.0,82,0.02,,FEW,0.37,0.0,WeatherDisplay:10.37,2013-01-26 04:14:00,
2013-01-25 20:16:00,55.3,49.9,29.96,ESE,102,0.0,0.0,82,0.02,CLR,FEW,0.37,0.0,WeatherDisplay:10.37,2013-01-26 04:16:00,
2013-01-25 20:17:00,55.3,49.9,29.96,ESE,102,0.0,0.0,82,0.02,CLR,FEW,0.37,0.0,WeatherDisplay:10.37,2013-01-26 04:17:00,
2013-01-25 20:18:00,55.3,49.9,29.96,ESE,102,0.0,0.0,82,0.02,CLR,FEW,0.37,0.0,WeatherDisplay:10.37,2013-01-26 04:18:00,
2013-01-25 20:19:00,55.3,50.2,29.96,ESE,102,0.0,0.0,83,0.02,CLR,FEW,0.37,0.0,WeatherDisplay:10.37,2013-01-26 04:19:00,
2013-01-25 20:22:00,55.3,50.2,29.96,ESE,102,0.0,0.0,83,0.02,CLR,FEW,0.37,0.0,WeatherDisplay:10.37,2013-01-26 04:22:00,
2013-01-25 20:23:00,55.3,50.2,29.96,ESE,102,0.0,0.0,83,0.02,CLR,FEW,0.37,0.0,WeatherDisplay:10.37,2013-01-26 04:23:00,
2013-01-25 20:24:00,55.3,50.2,29.96,NNE,15,0.0,0.0,83,0.02,CLR,FEW,0.37,0.0,WeatherDisplay:10.37,2013-01-26 04:24:00,
2013-01-25 20:27:00,55.3,50.2,29.96,NNE,15,0.0,0.0,83,0.02,CLR,FEW,0.37,0.0,WeatherDisplay:10.37,2013-01-26 04:27:00,
2013-01-25 20:28:00,55.3,50.2,29.96,NNE,15,0.0,0.0,83,0.02,CLR,FEW,0.37,0.0,WeatherDisplay:10.37,2013-01-26 04:28:00,
2013-01-25 20:29:00,55.3,50.2,29.95,NNE,15,0.0,0.0,83,0.02,CLR,FEW,0.37,0.0,WeatherDisplay:10.37,2013-01-26 04:29:00,
2013-01-25 20:31:00,55.1,50.0,29.95,NNE,15,0.0,0.0,83,0.02,CLR,FEW,0.37,0.0,WeatherDisplay:10.37,2013-01-26 04:31:00,
2013-01-25 20:32:00,55.1,50.0,29.95,NNE,17,0.0,0.0,83,0.02,CLR,FEW,0.37,0.0,WeatherDisplay:10.37,2013-01-26 04:32:00,
2013-01-25 20:34:00,55.0,49.9,29.95,ESE,103,0.0,0.0,83,0.01,CLR,FEW,0.37,0.0,WeatherDisplay:10.37,2013-01-26 04:34:00,
2013-01-25 20:37:00,54.8,50.1,29.95,East,86,0.5,3.5,84,0.01,CLR,FEW,0.37,0.0,WeatherDisplay:10.37,2013-01-26 04:37:00,
2013-01-25 20:39:00,54.8,50.1,29.95,East,89,0.0,0.0,84,0.01,CLR,FEW,0.37,0.0,WeatherDisplay:10.37,2013-01-26 04:39:00,
2013-01-25 20:40:00,54.8,50.1,29.95,East,89,0.0,0.0,84,0.01,CLR,FEW,0.37,0.0,WeatherDisplay:10.37,2013-01-26 04:40:00,
2013-01-25 20:42:00,54.8,50.1,29.95,East,89,0.0,0.0,84,0.01,CLR,FEW,0.37,0.0,WeatherDisplay:10.37,2013-01-26 04:42:00,
2013-01-25 20:45:00,54.8,50.1,29.94,East,89,0.0,0.0,84,0.01,CLR,FEW,0.37,0.0,WeatherDisplay:10.37,2013-01-26 04:45:00,
2013-01-25 20:47:00,54.8,50.1,29.94,East,89,0.0,0.0,84,0.01,CLR,FEW,0.37,0.0,WeatherDisplay:10.37,2013-01-26 04:47:00,
2013-01-25 20:48:00,54.8,50.1,29.94,East,89,0.0,0.0,84,0.01,CLR,FEW,0.37,0.0,WeatherDisplay:10.37,2013-01-26 04:48:00,
2013-01-25 20:50:00,54.8,50.1,29.94,East,89,0.0,0.0,84,0.01,CLR,FEW,0.37,0.0,WeatherDisplay:10.37,2013-01-26 04:50:00,
2013-01-25 20:51:00,54.8,50.1,29.94,East,91,0.0,0.0,84,0.01,CLR,FEW,0.37,0.0,WeatherDisplay:10.37,2013-01-26 04:51:00,
2013-01-25 20:52:00,54.8,50.1,29.94,East,96,0.0,0.0,84,0.01,CLR,FEW,0.37,0.0,WeatherDisplay:10.37,2013-01-26 04:52:00,
2013-01-25 20:53:00,54.8,50.1,29.94,ESE,113,0.0,0.0,84,0.01,CLR,FEW,0.37,0.0,WeatherDisplay:10.37,2013-01-26 04:53:00,
2013-01-25 20:56:00,54.8,50.1,29.94,ESE,107,0.0,0.0,84,0.01,CLR,FEW,0.37,0.0,WeatherDisplay:10.37,2013-01-26 04:56:00,
2013-01-25 20:57:00,54.7,50.0,29.94,ESE,111,0.0,0.0,84,0.01,CLR,FEW,0.37,0.0,WeatherDisplay:10.37,2013-01-26 04:57:00,
2013-01-25 20:58:00,54.7,50.0,29.94,ESE,122,0.0,0.0,84,0.01,CLR,FEW,0.37,0.0,WeatherDisplay:10.37,2013-01-26 04:58:00,
2013-01-25 21:00:00,54.7,50.0,29.96,ESE,123,0.0,0.0,84,0.01,CLR,FEW,0.37,0.0,WeatherDisplay:10.37,2013-01-26 05:00:00,
2013-01-25 21:01:00,54.7,50.0,29.96,ESE,123,0.0,0.0,84,0.01,CLR,FEW,0.37,0.0,WeatherDisplay:10.37,2013-01-26 05:01:00,
2013-01-25 21:03:00,54.7,50.0,29.96,ESE,123,0.8,9.1,84,0.00,CLR,FEW,0.37,0.0,WeatherDisplay:10.37,2013-01-26 05:03:00,
2013-01-25 21:05:00,54.7,50.0,29.96,SE,124,4.7,9.2,84,0.00,CLR,FEW,0.37,0.0,WeatherDisplay:10.37,2013-01-26 05:05:00,
2013-01-25 21:06:00,54.7,50.0,29.96,ESE,123,4.5,9.2,84,0.00,CLR,FEW,0.37,0.0,WeatherDisplay:10.37,2013-01-26 05:06:00,
2013-01-25 21:09:00,54.8,49.7,29.96,ESE,108,2.9,9.2,83,0.00,CLR,FEW,0.37,0.0,WeatherDisplay:10.37,2013-01-26 05:09:00,
2013-01-25 21:11:00,55.0,49.6,29.96,ESE,119,1.7,10.4,82,0.00,CLR,FEW,0.37,0.0,WeatherDisplay:10.37,2013-01-26 05:11:00,
2013-01-25 21:12:00,55.0,49.6,29.96,SE,129,1.7,9.2,82,0.00,CLR,FEW,0.37,0.0,WeatherDisplay:10.37,2013-01-26 05:12:00,
2013-01-25 21:14:00,55.1,49.7,29.96,East,98,2.9,9.2,82,0.00,CLR,FEW,0.37,0.0,WeatherDisplay:10.37,2013-01-26 05:14:00,
2013-01-25 21:16:00,55.3,49.6,29.97,SE,131,1.4,9.2,81,0.00,CLR,FEW,0.37,0.0,WeatherDisplay:10.37,2013-01-26 05:16:00,
2013-01-25 21:18:00,55.3,49.6,29.97,East,84,0.0,0.0,81,0.01,RA,FEW,0.38,0.0,WeatherDisplay:10.37,2013-01-26 05:18:00,
2013-01-25 21:19:00,55.3,49.6,29.97,ESE,112,0.0,0.0,81,0.01,RA,FEW,0.38,0.0,WeatherDisplay:10.37,2013-01-26 05:19:00,
2013-01-25 21:23:00,55.3,49.6,29.97,ESE,111,0.0,0.0,81,0.01,RA,FEW,0.38,0.0,WeatherDisplay:10.37,2013-01-26 05:23:00,
2013-01-25 21:24:00,55.3,49.6,29.97,ESE,111,1.0,6.9,81,0.01,RA,FEW,0.38,0.0,WeatherDisplay:10.37,2013-01-26 05:24:00,
2013-01-25 21:28:00,55.3,49.6,29.97,ESE,115,0.0,0.0,81,0.02,RA,FEW,0.39,0.0,WeatherDisplay:10.37,2013-01-26 05:28:00,
2013-01-25 21:29:00,55.3,49.6,29.97,ESE,120,0.0,0.0,81,0.02,RA,FEW,0.39,0.0,WeatherDisplay:10.37,2013-01-26 05:29:00,
2013-01-25 21:30:00,55.3,49.6,29.98,ESE,118,1.1,6.9,81,0.02,RA,FEW,0.39,0.0,WeatherDisplay:10.37,2013-01-26 05:30:00,
2013-01-25 21:31:00,55.3,49.6,29.98,ESE,119,0.3,5.8,81,0.02,RA,FEW,0.39,0.0,WeatherDisplay:10.37,2013-01-26 05:31:00,
2013-01-25 21:33:00,55.1,49.4,29.98,SSW,200,1.4,3.9,81,0.02,RA,FEW,0.39,0.0,WeatherDisplay:10.37,2013-01-26 05:33:00,
2013-01-25 21:34:00,55.1,49.4,29.98,SSW,207,2.5,10.4,81,0.02,RA,FEW,0.39,0.0,WeatherDisplay:10.37,2013-01-26 05:34:00,
2013-01-25 21:36:00,55.1,49.4,29.98,SSW,200,1.5,9.2,81,0.02,,FEW,0.39,0.0,WeatherDisplay:10.37,2013-01-26 05:36:00,
2013-01-25 21:39:00,55.1,49.7,29.98,SSW,200,0.0,0.0,82,0.04,RA,FEW,0.40,0.0,WeatherDisplay:10.37,2013-01-26 05:39:00,
2013-01-25 21:41:00,55.1,49.7,29.98,SSW,200,0.0,0.0,82,0.04,RA,FEW,0.40,0.0,WeatherDisplay:10.37,2013-01-26 05:41:00,
2013-01-25 21:42:00,55.1,49.7,29.98,SSW,200,0.0,0.0,82,0.04,RA,FEW,0.40,0.0,WeatherDisplay:10.37,2013-01-26 05:42:00,
2013-01-25 21:44:00,55.1,50.0,29.97,SSW,200,0.0,0.0,83,0.04,RA,FEW,0.40,0.0,WeatherDisplay:10.37,2013-01-26 05:44:00,
2013-01-25 21:47:00,55.0,49.9,29.97,SSW,200,0.0,0.0,83,0.04,RA,FEW,0.40,0.0,WeatherDisplay:10.37,2013-01-26 05:47:00,
2013-01-25 21:50:00,55.0,50.3,29.97,SSW,200,0.0,0.0,84,0.04,,FEW,0.40,0.0,WeatherDisplay:10.37,2013-01-26 05:50:00,
2013-01-25 21:52:00,55.0,50.3,29.97,SSW,200,0.0,0.0,84,0.04,CLR,FEW,0.40,0.0,WeatherDisplay:10.37,2013-01-26 05:52:00,
2013-01-25 21:53:00,55.0,50.3,29.97,SSW,200,0.0,0.0,84,0.04,CLR,FEW,0.40,0.0,WeatherDisplay:10.37,2013-01-26 05:53:00,
2013-01-25 21:55:00,54.8,50.1,29.97,SSW,200,0.0,0.0,84,0.05,RA,FEW,0.41,0.0,WeatherDisplay:10.37,2013-01-26 05:55:00,
2013-01-25 21:57:00,54.8,50.4,29.97,SSW,200,0.0,0.0,85,0.05,RA,FEW,0.41,0.0,WeatherDisplay:10.37,2013-01-26 05:57:00,
2013-01-25 21:58:00,54.8,50.4,29.97,SSW,200,0.0,0.0,85,0.05,RA,FEW,0.41,0.0,WeatherDisplay:10.37,2013-01-26 05:58:00,
2013-01-25 22:00:00,54.8,50.4,29.96,SSW,200,0.0,0.0,85,0.05,RA,FEW,0.41,0.0,WeatherDisplay:10.37,2013-01-26 06:00:00,
2013-01-25 22:02:00,54.8,50.4,29.96,SSW,200,0.0,0.0,85,0.05,RA,FEW,0.41,0.0,WeatherDisplay:10.37,2013-01-26 06:02:00,
2013-01-25 22:04:00,54.8,50.4,29.96,SSW,200,0.0,0.0,85,0.05,,FEW,0.41,0.0,WeatherDisplay:10.37,2013-01-26 06:04:00,
2013-01-25 22:06:00,54.8,50.4,29.96,SSW,200,0.0,0.0,85,0.05,CLR,FEW,0.41,0.0,WeatherDisplay:10.37,2013-01-26 06:06:00,
2013-01-25 22:08:00,54.8,50.4,29.96,SSW,200,0.0,0.0,85,0.05,CLR,FEW,0.41,0.0,WeatherDisplay:10.37,2013-01-26 06:08:00,
2013-01-25 22:09:00,54.8,50.4,29.96,SSW,200,0.0,0.0,85,0.05,CLR,FEW,0.41,0.0,WeatherDisplay:10.37,2013-01-26 06:09:00,
2013-01-25 22:12:00,54.8,50.4,29.96,SSW,200,0.0,0.0,85,0.05,CLR,FEW,0.41,0.0,WeatherDisplay:10.37,2013-01-26 06:12:00,
2013-01-25 22:13:00,54.8,50.4,29.96,SSW,200,0.0,0.0,85,0.05,CLR,FEW,0.41,0.0,WeatherDisplay:10.37,2013-01-26 06:13:00,
2013-01-25 22:14:00,54.8,50.4,29.96,SSW,200,0.0,0.0,85,0.05,CLR,FEW,0.41,0.0,WeatherDisplay:10.37,2013-01-26 06:14:00,
2013-01-25 22:17:00,54.8,50.7,29.97,SSW,200,0.0,0.0,86,0.04,CLR,FEW,0.41,0.0,WeatherDisplay:10.37,2013-01-26 06:17:00,
2013-01-25 22:18:00,54.8,50.7,29.97,SSW,200,0.0,0.0,86,0.04,CLR,FEW,0.41,0.0,WeatherDisplay:10.37,2013-01-26 06:18:00,
2013-01-25 22:19:00,54.8,50.7,29.97,SSW,200,0.0,0.0,86,0.04,CLR,FEW,0.41,0.0,WeatherDisplay:10.37,2013-01-26 06:19:00,
2013-01-25 22:20:00,54.8,50.7,29.97,SSW,200,0.0,0.0,86,0.04,CLR,FEW,0.41,0.0,WeatherDisplay:10.37,2013-01-26 06:20:00,
2013-01-25 22:22:00,54.8,50.7,29.97,SSW,200,0.0,0.0,86,0.04,CLR,FEW,0.41,0.0,WeatherDisplay:10.37,2013-01-26 06:22:00,
2013-01-25 22:24:00,54.8,50.7,29.97,SSW,200,0.0,0.0,86,0.04,CLR,FEW,0.41,0.0,WeatherDisplay:10.37,2013-01-26 06:24:00,
2013-01-25 22:25:00,54.8,50.7,29.97,SSW,200,0.0,0.0,86,0.02,CLR,FEW,0.41,0.0,WeatherDisplay:10.37,2013-01-26 06:25:00,
2013-01-25 22:28:00,54.7,50.6,29.97,SSW,200,0.0,0.0,86,0.02,CLR,FEW,0.41,0.0,WeatherDisplay:10.37,2013-01-26 06:28:00,
2013-01-25 22:29:00,54.7,50.6,29.97,SSW,200,0.0,0.0,86,0.02,CLR,FEW,0.41,0.0,WeatherDisplay:10.37,2013-01-26 06:29:00,
2013-01-25 22:30:00,54.7,50.6,29.98,SSW,200,0.0,0.0,86,0.02,CLR,FEW,0.41,0.0,WeatherDisplay:10.37,2013-01-26 06:30:00,
2013-01-25 22:31:00,54.7,50.6,29.98,SSW,200,0.0,0.0,86,0.02,CLR,FEW,0.41,0.0,WeatherDisplay:10.37,2013-01-26 06:31:00,
2013-01-25 22:33:00,54.7,50.6,29.98,SSW,200,0.0,0.0,86,0.02,CLR,FEW,0.41,0.0,WeatherDisplay:10.37,2013-01-26 06:33:00,
2013-01-25 22:35:00,54.7,50.6,29.98,SSW,200,0.0,0.0,86,0.02,CLR,FEW,0.41,0.0,WeatherDisplay:10.37,2013-01-26 06:35:00,
2013-01-25 22:36:00,54.7,50.6,29.98,SSW,200,0.0,0.0,86,0.02,CLR,FEW,0.41,0.0,WeatherDisplay:10.37,2013-01-26 06:36:00,
2013-01-25 22:37:00,54.7,50.6,29.98,SSW,200,0.0,0.0,86,0.02,CLR,FEW,0.41,0.0,WeatherDisplay:10.37,2013-01-26 06:37:00,
2013-01-25 22:38:00,54.5,50.4,29.98,SSW,200,0.0,0.0,86,0.02,CLR,FEW,0.41,0.0,WeatherDisplay:10.37,2013-01-26 06:38:00,
2013-01-25 22:41:00,54.5,50.4,29.98,SSW,200,0.0,0.0,86,0.01,CLR,FEW,0.41,0.0,WeatherDisplay:10.37,2013-01-26 06:41:00,
2013-01-25 22:42:00,54.5,50.4,29.98,SSW,200,0.0,0.0,86,0.01,CLR,FEW,0.41,0.0,WeatherDisplay:10.37,2013-01-26 06:42:00,
2013-01-25 22:43:00,54.5,50.4,29.98,SSW,200,0.0,0.0,86,0.01,CLR,FEW,0.41,0.0,WeatherDisplay:10.37,2013-01-26 06:43:00,
2013-01-25 22:46:00,54.5,50.7,29.98,SSW,200,0.0,0.0,87,0.01,CLR,FEW,0.41,0.0,WeatherDisplay:10.37,2013-01-26 06:46:00,
2013-01-25 22:47:00,54.5,50.7,29.98,SSW,200,0.0,0.0,87,0.01,CLR,FEW,0.41,0.0,WeatherDisplay:10.37,2013-01-26 06:47:00,
2013-01-25 22:48:00,54.5,50.7,29.98,SSW,200,0.0,0.0,87,0.01,CLR,FEW,0.41,0.0,WeatherDisplay:10.37,2013-01-26 06:48:00,
2013-01-25 22:51:00,54.5,50.7,29.98,SSW,200,0.0,0.0,87,0.01,CLR,FEW,0.41,0.0,WeatherDisplay:10.37,2013-01-26 06:51:00,
2013-01-25 22:52:00,54.5,50.7,29.98,SSW,200,0.0,0.0,87,0.01,CLR,FEW,0.41,0.0,WeatherDisplay:10.37,2013-01-26 06:52:00,
2013-01-25 22:53:00,54.5,50.7,29.98,SSW,200,0.0,0.0,87,0.01,CLR,FEW,0.41,0.0,WeatherDisplay:10.37,2013-01-26 06:53:00,
2013-01-25 22:56:00,54.5,50.7,29.98,SSW,200,0.0,0.0,87,0.00,CLR,FEW,0.41,0.0,WeatherDisplay:10.37,2013-01-26 06:56:00,
2013-01-25 22:57:00,54.5,50.7,29.98,SSW,200,0.0,0.0,87,0.00,CLR,FEW,0.41,0.0,WeatherDisplay:10.37,2013-01-26 06:57:00,
2013-01-25 22:59:00,54.5,50.7,29.98,SSW,200,0.0,0.0,87,0.00,CLR,FEW,0.43,0.0,WeatherDisplay:10.37,2013-01-26 06:59:00,
2013-01-25 23:02:00,54.4,50.6,29.98,SSW,200,0.0,0.0,87,0.01,RA,FEW,0.43,0.0,WeatherDisplay:10.37,2013-01-26 07:02:00,
2013-01-25 23:05:00,54.4,50.6,29.98,SSW,200,0.0,0.0,87,0.01,RA,FEW,0.43,0.0,WeatherDisplay:10.37,2013-01-26 07:05:00,
2013-01-25 23:07:00,54.4,50.6,29.98,ENE,68,0.0,0.0,87,0.02,RA,FEW,0.44,0.0,WeatherDisplay:10.37,2013-01-26 07:07:00,
2013-01-25 23:08:00,54.4,50.6,29.98,ENE,68,0.0,0.0,87,0.02,RA,FEW,0.44,0.0,WeatherDisplay:10.37,2013-01-26 07:08:00,
2013-01-25 23:10:00,54.4,50.6,29.98,ENE,68,0.0,0.0,87,0.02,RA,FEW,0.44,0.0,WeatherDisplay:10.37,2013-01-26 07:10:00,
2013-01-25 23:12:00,54.4,50.6,29.98,ENE,68,0.0,0.0,87,0.02,RA,FEW,0.44,0.0,WeatherDisplay:10.37,2013-01-26 07:12:00,
2013-01-25 23:14:00,54.4,50.6,29.98,ENE,68,0.0,0.0,87,0.02,RA,FEW,0.44,0.0,WeatherDisplay:10.37,2013-01-26 07:14:00,
2013-01-25 23:15:00,54.4,50.6,29.98,ENE,68,0.0,0.0,87,0.02,RA,FEW,0.44,0.0,WeatherDisplay:10.37,2013-01-26 07:15:00,
2013-01-25 23:17:00,54.2,50.4,29.98,ENE,68,0.0,0.0,87,0.02,,FEW,0.44,0.0,WeatherDisplay:10.37,2013-01-26 07:17:00,
2013-01-25 23:18:00,54.2,50.4,29.98,ENE,68,0.0,0.0,87,0.02,,FEW,0.44,0.0,WeatherDisplay:10.37,2013-01-26 07:18:00,
2013-01-25 23:19:00,54.2,50.4,29.98,ENE,68,0.0,0.0,87,0.04,RA,FEW,0.45,0.0,WeatherDisplay:10.37,2013-01-26 07:19:00,
2013-01-25 23:20:00,54.2,50.4,29.98,ENE,68,0.0,0.0,87,0.04,RA,FEW,0.45,0.0,WeatherDisplay:10.37,2013-01-26 07:20:00,
2013-01-25 23:23:00,54.2,50.4,29.98,ENE,68,0.0,0.0,87,0.04,RA,FEW,0.45,0.0,WeatherDisplay:10.37,2013-01-26 07:23:00,
2013-01-25 23:24:00,54.2,50.4,29.98,ENE,68,0.0,0.0,87,0.04,RA,FEW,0.45,0.0,WeatherDisplay:10.37,2013-01-26 07:24:00,
2013-01-25 23:26:00,54.2,50.4,29.98,ENE,68,0.0,0.0,87,0.04,RA,FEW,0.45,0.0,WeatherDisplay:10.37,2013-01-26 07:26:00,
2013-01-25 23:28:00,54.2,50.4,29.98,ENE,68,0.0,0.0,87,0.04,RA,FEW,0.45,0.0,WeatherDisplay:10.37,2013-01-26 07:28:00,
2013-01-25 23:29:00,54.2,50.4,29.98,ENE,68,0.0,0.0,87,0.04,,FEW,0.45,0.0,WeatherDisplay:10.37,2013-01-26 07:29:00,
2013-01-25 23:31:00,54.2,50.4,29.97,ENE,68,0.0,0.0,87,0.04,CLR,FEW,0.45,0.0,WeatherDisplay:10.37,2013-01-26 07:31:00,
2013-01-25 23:34:00,54.1,50.3,29.97,ENE,68,0.0,0.0,87,0.05,RA,FEW,0.46,0.0,WeatherDisplay:10.37,2013-01-26 07:34:00,
2013-01-25 23:35:00,54.1,50.3,29.97,ENE,68,0.0,0.0,87,0.05,RA,FEW,0.46,0.0,WeatherDisplay:10.37,2013-01-26 07:35:00,
2013-01-25 23:36:00,54.1,50.3,29.97,ENE,68,0.0,0.0,87,0.05,RA,FEW,0.46,0.0,WeatherDisplay:10.37,2013-01-26 07:36:00,
2013-01-25 23:39:00,54.1,50.3,29.97,ENE,68,0.0,0.0,87,0.05,RA,FEW,0.46,0.0,WeatherDisplay:10.37,2013-01-26 07:39:00,
2013-01-25 23:40:00,54.1,50.3,29.97,ENE,68,0.0,0.0,87,0.05,RA,FEW,0.46,0.0,WeatherDisplay:10.37,2013-01-26 07:40:00,
2013-01-25 23:42:00,54.1,50.3,29.97,ENE,68,0.0,0.0,87,0.05,RA,FEW,0.46,0.0,WeatherDisplay:10.37,2013-01-26 07:42:00,
2013-01-25 23:45:00,54.1,50.3,29.96,ENE,68,0.0,0.0,87,0.05,CLR,FEW,0.46,0.0,WeatherDisplay:10.37,2013-01-26 07:45:00,
2013-01-25 23:47:00,54.1,50.3,29.96,ENE,68,0.0,0.0,87,0.05,CLR,FEW,0.46,0.0,WeatherDisplay:10.37,2013-01-26 07:47:00,
2013-01-25 23:48:00,54.1,50.3,29.96,ENE,68,0.0,0.0,87,0.05,CLR,FEW,0.46,0.0,WeatherDisplay:10.37,2013-01-26 07:48:00,
2013-01-25 23:51:00,54.1,50.3,29.96,ENE,68,0.0,0.0,87,0.05,CLR,FEW,0.46,0.0,WeatherDisplay:10.37,2013-01-26 07:51:00,
2013-01-25 23:52:00,53.9,50.1,29.96,ENE,68,0.0,0.0,87,0.05,CLR,FEW,0.47,0.0,WeatherDisplay:10.37,2013-01-26 07:52:00,
2013-01-25 23:54:00,53.9,50.1,29.96,ENE,68,0.0,0.0,87,0.01,RA,FEW,0.47,0.0,WeatherDisplay:10.37,2013-01-26 07:54:00,
2013-01-25 23:56:00,53.9,50.1,29.96,ENE,68,0.0,0.0,87,0.06,RA,FEW,0.47,0.0,WeatherDisplay:10.37,2013-01-26 07:56:00,
2013-01-25 23:57:00,53.9,50.1,29.96,ENE,68,0.0,0.0,87,0.06,RA,FEW,0.47,0.0,WeatherDisplay:10.37,2013-01-26 07:57:00,
2013-01-25 23:59:00,53.9,50.1,29.96,ENE,68,0.0,0.0,87,0.06,RA,FEW,0.47,0.0,WeatherDisplay:10.37,2013-01-26 07:59:00,